﻿<?xml version="1.0" encoding="utf-8"?><gpx creator="Garmin Desktop App" version="1.1" xsi:schemaLocation="http://www.topografix.com/GPX/1/1 http://www.topografix.com/GPX/1/1/gpx.xsd http://www.garmin.com/xmlschemas/WaypointExtension/v1 http://www8.garmin.com/xmlschemas/WaypointExtensionv1.xsd http://www.garmin.com/xmlschemas/TrackPointExtension/v1 http://www.garmin.com/xmlschemas/TrackPointExtensionv1.xsd http://www.garmin.com/xmlschemas/GpxExtensions/v3 http://www8.garmin.com/xmlschemas/GpxExtensionsv3.xsd http://www.garmin.com/xmlschemas/ActivityExtension/v1 http://www8.garmin.com/xmlschemas/ActivityExtensionv1.xsd http://www.garmin.com/xmlschemas/AdventuresExtensions/v1 http://www8.garmin.com/xmlschemas/AdventuresExtensionv1.xsd http://www.garmin.com/xmlschemas/PressureExtension/v1 http://www.garmin.com/xmlschemas/PressureExtensionv1.xsd http://www.garmin.com/xmlschemas/TripExtensions/v1 http://www.garmin.com/xmlschemas/TripExtensionsv1.xsd http://www.garmin.com/xmlschemas/TripMetaDataExtensions/v1 http://www.garmin.com/xmlschemas/TripMetaDataExtensionsv1.xsd http://www.garmin.com/xmlschemas/ViaPointTransportationModeExtensions/v1 http://www.garmin.com/xmlschemas/ViaPointTransportationModeExtensionsv1.xsd http://www.garmin.com/xmlschemas/CreationTimeExtensions/v1 http://www.garmin.com/xmlschemas/CreationTimeExtensionsv1.xsd" xmlns="http://www.topografix.com/GPX/1/1" xmlns:xsi="http://www.w3.org/2001/XMLSchema-instance" xmlns:wptx1="http://www.garmin.com/xmlschemas/WaypointExtension/v1" xmlns:gpxtrx="http://www.garmin.com/xmlschemas/GpxExtensions/v3" xmlns:gpxtpx="http://www.garmin.com/xmlschemas/TrackPointExtension/v1" xmlns:gpxx="http://www.garmin.com/xmlschemas/GpxExtensions/v3" xmlns:trp="http://www.garmin.com/xmlschemas/TripExtensions/v1" xmlns:adv="http://www.garmin.com/xmlschemas/AdventuresExtensions/v1" xmlns:prs="http://www.garmin.com/xmlschemas/PressureExtension/v1" xmlns:tmd="http://www.garmin.com/xmlschemas/TripMetaDataExtensions/v1" xmlns:vptm="http://www.garmin.com/xmlschemas/ViaPointTransportationModeExtensions/v1" xmlns:ctx="http://www.garmin.com/xmlschemas/CreationTimeExtension/v1">

  <metadata>
    <link href="http://www.garmin.com">
      <text>Garmin International</text>
    </link>
    <time>2013-10-01T14:00:10Z</time>
    <bounds maxlat="47.439247481524944" maxlon="12.248910795897245" minlat="47.419167961925268" minlon="12.234965236857533" />
  </metadata>

  <trk>
    <name>15-SEP-13 20:55:48</name>
    <extensions>
      <gpxx:TrackExtension>
        <gpxx:DisplayColor>Green</gpxx:DisplayColor>
      </gpxx:TrackExtension>
    </extensions>
    <trkseg>
      <trkpt lat="47.438274091109633" lon="12.235057605430484">
        <ele>827.83000000000004</ele>
        <time>2013-09-15T09:08:12Z</time>
      </trkpt>
      <trkpt lat="47.438303427770734" lon="12.235062634572387">
        <ele>827.35000000000002</ele>
        <time>2013-09-15T09:08:29Z</time>
      </trkpt>
      <trkpt lat="47.438349444419146" lon="12.23503396846354">
        <ele>826.38999999999999</ele>
        <time>2013-09-15T09:08:43Z</time>
      </trkpt>
      <trkpt lat="47.438375260680914" lon="12.234990634024143">
        <ele>824.95000000000005</ele>
        <time>2013-09-15T09:08:49Z</time>
      </trkpt>
      <trkpt lat="47.438465282320976" lon="12.234965236857533">
        <ele>824.47000000000003</ele>
        <time>2013-09-15T09:08:53Z</time>
      </trkpt>
      <trkpt lat="47.438448769971728" lon="12.235076380893588">
        <ele>825.42999999999995</ele>
        <time>2013-09-15T09:09:00Z</time>
      </trkpt>
      <trkpt lat="47.438503336161375" lon="12.235191045328975">
        <ele>825.42999999999995</ele>
        <time>2013-09-15T09:09:06Z</time>
      </trkpt>
      <trkpt lat="47.438520351424813" lon="12.235228847712278">
        <ele>825.42999999999995</ele>
        <time>2013-09-15T09:09:09Z</time>
      </trkpt>
      <trkpt lat="47.438629819080234" lon="12.235406376421452">
        <ele>825.90999999999997</ele>
        <time>2013-09-15T09:09:20Z</time>
      </trkpt>
      <trkpt lat="47.438668627291918" lon="12.235516766086221">
        <ele>825.42999999999995</ele>
        <time>2013-09-15T09:09:26Z</time>
      </trkpt>
      <trkpt lat="47.43866871111095" lon="12.235578121617436">
        <ele>825.42999999999995</ele>
        <time>2013-09-15T09:09:31Z</time>
      </trkpt>
      <trkpt lat="47.438695365563035" lon="12.235745256766677">
        <ele>826.38999999999999</ele>
        <time>2013-09-15T09:09:39Z</time>
      </trkpt>
      <trkpt lat="47.438715230673552" lon="12.235773419961333">
        <ele>826.38999999999999</ele>
        <time>2013-09-15T09:09:41Z</time>
      </trkpt>
      <trkpt lat="47.43871564976871" lon="12.235799068585038">
        <ele>826.38999999999999</ele>
        <time>2013-09-15T09:09:48Z</time>
      </trkpt>
      <trkpt lat="47.438774909824133" lon="12.235945668071508">
        <ele>826.38999999999999</ele>
        <time>2013-09-15T09:09:58Z</time>
      </trkpt>
      <trkpt lat="47.438771389424801" lon="12.236015070229769">
        <ele>826.87</ele>
        <time>2013-09-15T09:10:01Z</time>
      </trkpt>
      <trkpt lat="47.438749931752682" lon="12.236096542328596">
        <ele>826.87</ele>
        <time>2013-09-15T09:10:05Z</time>
      </trkpt>
      <trkpt lat="47.438760912045836" lon="12.236144235357642">
        <ele>826.87</ele>
        <time>2013-09-15T09:10:08Z</time>
      </trkpt>
      <trkpt lat="47.438754793256521" lon="12.23617441020906">
        <ele>826.87</ele>
        <time>2013-09-15T09:10:11Z</time>
      </trkpt>
      <trkpt lat="47.43877625092864" lon="12.236206093803048">
        <ele>826.87</ele>
        <time>2013-09-15T09:10:25Z</time>
      </trkpt>
      <trkpt lat="47.438775580376387" lon="12.236213553696871">
        <ele>827.35000000000002</ele>
        <time>2013-09-15T09:10:36Z</time>
      </trkpt>
      <trkpt lat="47.438775999471545" lon="12.236242303624749">
        <ele>827.35000000000002</ele>
        <time>2013-09-15T09:10:52Z</time>
      </trkpt>
      <trkpt lat="47.438770215958357" lon="12.236302401870489">
        <ele>827.35000000000002</ele>
        <time>2013-09-15T09:11:12Z</time>
      </trkpt>
      <trkpt lat="47.438790919259191" lon="12.236427962779999">
        <ele>827.83000000000004</ele>
        <time>2013-09-15T09:11:19Z</time>
      </trkpt>
      <trkpt lat="47.438815897330642" lon="12.236531060189009">
        <ele>828.30999999999995</ele>
        <time>2013-09-15T09:11:26Z</time>
      </trkpt>
      <trkpt lat="47.438841462135315" lon="12.236646814271808">
        <ele>828.78999999999996</ele>
        <time>2013-09-15T09:11:33Z</time>
      </trkpt>
      <trkpt lat="47.438857555389404" lon="12.236689059063792">
        <ele>829.75999999999999</ele>
        <time>2013-09-15T09:11:36Z</time>
      </trkpt>
      <trkpt lat="47.438848670572042" lon="12.236771536991">
        <ele>830.24000000000001</ele>
        <time>2013-09-15T09:11:40Z</time>
      </trkpt>
      <trkpt lat="47.438838528469205" lon="12.236860804259777">
        <ele>831.20000000000005</ele>
        <time>2013-09-15T09:11:44Z</time>
      </trkpt>
      <trkpt lat="47.438866859301925" lon="12.23689223639667">
        <ele>830.24000000000001</ele>
        <time>2013-09-15T09:11:47Z</time>
      </trkpt>
      <trkpt lat="47.438908936455846" lon="12.237054593861103">
        <ele>831.67999999999995</ele>
        <time>2013-09-15T09:11:56Z</time>
      </trkpt>
      <trkpt lat="47.438915390521288" lon="12.237086445093155">
        <ele>831.67999999999995</ele>
        <time>2013-09-15T09:11:59Z</time>
      </trkpt>
      <trkpt lat="47.438904913142323" lon="12.237121732905507">
        <ele>833.12</ele>
        <time>2013-09-15T09:12:01Z</time>
      </trkpt>
      <trkpt lat="47.438918827101588" lon="12.237198343500495">
        <ele>832.63999999999999</ele>
        <time>2013-09-15T09:12:06Z</time>
      </trkpt>
      <trkpt lat="47.438923604786396" lon="12.237240672111511">
        <ele>834.08000000000004</ele>
        <time>2013-09-15T09:12:09Z</time>
      </trkpt>
      <trkpt lat="47.438899464905262" lon="12.23739112727344">
        <ele>834.55999999999995</ele>
        <time>2013-09-15T09:12:17Z</time>
      </trkpt>
      <trkpt lat="47.438883874565363" lon="12.237428845837712">
        <ele>834.55999999999995</ele>
        <time>2013-09-15T09:12:19Z</time>
      </trkpt>
      <trkpt lat="47.438854370266199" lon="12.237553987652063">
        <ele>835.51999999999998</ele>
        <time>2013-09-15T09:12:28Z</time>
      </trkpt>
      <trkpt lat="47.438811622560024" lon="12.237601932138205">
        <ele>837.92999999999995</ele>
        <time>2013-09-15T09:12:32Z</time>
      </trkpt>
      <trkpt lat="47.438814556226134" lon="12.237661527469754">
        <ele>837.92999999999995</ele>
        <time>2013-09-15T09:12:36Z</time>
      </trkpt>
      <trkpt lat="47.438765773549676" lon="12.23776051774621">
        <ele>839.37</ele>
        <time>2013-09-15T09:12:43Z</time>
      </trkpt>
      <trkpt lat="47.438718331977725" lon="12.237927652895451">
        <ele>840.80999999999995</ele>
        <time>2013-09-15T09:12:53Z</time>
      </trkpt>
      <trkpt lat="47.438731910660863" lon="12.237976519390941">
        <ele>839.85000000000002</ele>
        <time>2013-09-15T09:12:56Z</time>
      </trkpt>
      <trkpt lat="47.438736520707607" lon="12.23802681080997">
        <ele>840.80999999999995</ele>
        <time>2013-09-15T09:12:59Z</time>
      </trkpt>
      <trkpt lat="47.43871171027422" lon="12.238058997318149">
        <ele>841.76999999999998</ele>
        <time>2013-09-15T09:13:01Z</time>
      </trkpt>
      <trkpt lat="47.438698802143335" lon="12.238125130534172">
        <ele>841.76999999999998</ele>
        <time>2013-09-15T09:13:06Z</time>
      </trkpt>
      <trkpt lat="47.438659155741334" lon="12.238204590976238">
        <ele>843.21000000000004</ele>
        <time>2013-09-15T09:13:11Z</time>
      </trkpt>
      <trkpt lat="47.438646499067545" lon="12.238235687837005">
        <ele>843.69000000000005</ele>
        <time>2013-09-15T09:13:13Z</time>
      </trkpt>
      <trkpt lat="47.438662843778729" lon="12.238336270675063">
        <ele>843.21000000000004</ele>
        <time>2013-09-15T09:13:19Z</time>
      </trkpt>
      <trkpt lat="47.438654126599431" lon="12.23845730535686">
        <ele>844.65999999999997</ele>
        <time>2013-09-15T09:13:26Z</time>
      </trkpt>
      <trkpt lat="47.438646666705608" lon="12.2384949401021">
        <ele>844.65999999999997</ele>
        <time>2013-09-15T09:13:29Z</time>
      </trkpt>
      <trkpt lat="47.438619257882237" lon="12.238541208207607">
        <ele>845.62</ele>
        <time>2013-09-15T09:13:32Z</time>
      </trkpt>
      <trkpt lat="47.43860375136137" lon="12.238639611750841">
        <ele>846.58000000000004</ele>
        <time>2013-09-15T09:13:38Z</time>
      </trkpt>
      <trkpt lat="47.438609870150685" lon="12.238719994202256">
        <ele>847.05999999999995</ele>
        <time>2013-09-15T09:13:44Z</time>
      </trkpt>
      <trkpt lat="47.438587574288249" lon="12.238750252872705">
        <ele>848.01999999999998</ele>
        <time>2013-09-15T09:13:46Z</time>
      </trkpt>
      <trkpt lat="47.438572654500604" lon="12.238798029720783">
        <ele>846.58000000000004</ele>
        <time>2013-09-15T09:13:49Z</time>
      </trkpt>
      <trkpt lat="47.438566200435162" lon="12.238834155723453">
        <ele>847.53999999999996</ele>
        <time>2013-09-15T09:13:52Z</time>
      </trkpt>
      <trkpt lat="47.438518004491925" lon="12.238881681114435">
        <ele>849.46000000000004</ele>
        <time>2013-09-15T09:13:59Z</time>
      </trkpt>
      <trkpt lat="47.438484057784081" lon="12.239020988345146">
        <ele>850.41999999999996</ele>
        <time>2013-09-15T09:14:10Z</time>
      </trkpt>
      <trkpt lat="47.438486739993095" lon="12.239129450172186">
        <ele>851.38</ele>
        <time>2013-09-15T09:14:19Z</time>
      </trkpt>
      <trkpt lat="47.438481291756034" lon="12.239152332767844">
        <ele>852.35000000000002</ele>
        <time>2013-09-15T09:14:21Z</time>
      </trkpt>
      <trkpt lat="47.438484393060207" lon="12.239189716055989">
        <ele>853.30999999999995</ele>
        <time>2013-09-15T09:14:25Z</time>
      </trkpt>
      <trkpt lat="47.438496546819806" lon="12.239328604191542">
        <ele>853.30999999999995</ele>
        <time>2013-09-15T09:14:37Z</time>
      </trkpt>
      <trkpt lat="47.438508197665215" lon="12.239337405189872">
        <ele>853.78999999999996</ele>
        <time>2013-09-15T09:14:39Z</time>
      </trkpt>
      <trkpt lat="47.438585981726646" lon="12.239400520920753">
        <ele>855.71000000000004</ele>
        <time>2013-09-15T09:14:46Z</time>
      </trkpt>
      <trkpt lat="47.438619425520301" lon="12.23952105268836">
        <ele>856.19000000000005</ele>
        <time>2013-09-15T09:14:58Z</time>
      </trkpt>
      <trkpt lat="47.438616156578064" lon="12.239544605836272">
        <ele>859.55999999999995</ele>
        <time>2013-09-15T09:15:02Z</time>
      </trkpt>
      <trkpt lat="47.438644822686911" lon="12.239573523402214">
        <ele>859.55999999999995</ele>
        <time>2013-09-15T09:15:12Z</time>
      </trkpt>
      <trkpt lat="47.438654042780399" lon="12.239611996337771">
        <ele>860.03999999999996</ele>
        <time>2013-09-15T09:15:17Z</time>
      </trkpt>
      <trkpt lat="47.438664520159364" lon="12.239624736830592">
        <ele>860.03999999999996</ele>
        <time>2013-09-15T09:15:19Z</time>
      </trkpt>
      <trkpt lat="47.438672399148345" lon="12.239665221422911">
        <ele>861.48000000000002</ele>
        <time>2013-09-15T09:15:25Z</time>
      </trkpt>
      <trkpt lat="47.438742471858859" lon="12.239805869758129">
        <ele>862.91999999999996</ele>
        <time>2013-09-15T09:15:38Z</time>
      </trkpt>
      <trkpt lat="47.438736688345671" lon="12.239826656877995">
        <ele>863.88</ele>
        <time>2013-09-15T09:15:53Z</time>
      </trkpt>
      <trkpt lat="47.438720259815454" lon="12.239877954125404">
        <ele>865.79999999999995</ele>
        <time>2013-09-15T09:16:09Z</time>
      </trkpt>
      <trkpt lat="47.438737023621798" lon="12.239957163110375">
        <ele>866.76999999999998</ele>
        <time>2013-09-15T09:16:20Z</time>
      </trkpt>
      <trkpt lat="47.438771221786737" lon="12.240092447027564">
        <ele>868.69000000000005</ele>
        <time>2013-09-15T09:16:34Z</time>
      </trkpt>
      <trkpt lat="47.438779687508941" lon="12.240190263837576">
        <ele>870.61000000000001</ele>
        <time>2013-09-15T09:16:46Z</time>
      </trkpt>
      <trkpt lat="47.438803408294916" lon="12.24030920304358">
        <ele>872.52999999999997</ele>
        <time>2013-09-15T09:17:00Z</time>
      </trkpt>
      <trkpt lat="47.438796116039157" lon="12.240337617695332">
        <ele>873.00999999999999</ele>
        <time>2013-09-15T09:17:03Z</time>
      </trkpt>
      <trkpt lat="47.438863171264529" lon="12.240535514429212">
        <ele>875.41999999999996</ele>
        <time>2013-09-15T09:17:14Z</time>
      </trkpt>
      <trkpt lat="47.438900386914611" lon="12.240645736455917">
        <ele>876.86000000000001</ele>
        <time>2013-09-15T09:17:25Z</time>
      </trkpt>
      <trkpt lat="47.438947493210435" lon="12.240785798057914">
        <ele>877.34000000000003</ele>
        <time>2013-09-15T09:17:38Z</time>
      </trkpt>
      <trkpt lat="47.438921257853508" lon="12.240996351465583">
        <ele>879.25999999999999</ele>
        <time>2013-09-15T09:17:52Z</time>
      </trkpt>
      <trkpt lat="47.438923604786396" lon="12.241028202697635">
        <ele>879.74000000000001</ele>
        <time>2013-09-15T09:17:54Z</time>
      </trkpt>
      <trkpt lat="47.438915893435478" lon="12.241048822179437">
        <ele>878.77999999999997</ele>
        <time>2013-09-15T09:17:56Z</time>
      </trkpt>
      <trkpt lat="47.4388871435076" lon="12.241225345060229">
        <ele>881.19000000000005</ele>
        <time>2013-09-15T09:18:10Z</time>
      </trkpt>
      <trkpt lat="47.43888957425952" lon="12.241350319236517">
        <ele>882.63</ele>
        <time>2013-09-15T09:18:20Z</time>
      </trkpt>
      <trkpt lat="47.438867697492242" lon="12.241484429687262">
        <ele>883.11000000000001</ele>
        <time>2013-09-15T09:18:32Z</time>
      </trkpt>
      <trkpt lat="47.438835259526968" lon="12.241540420800447">
        <ele>883.59000000000003</ele>
        <time>2013-09-15T09:18:39Z</time>
      </trkpt>
      <trkpt lat="47.438842635601759" lon="12.241580151021481">
        <ele>885.99000000000001</ele>
        <time>2013-09-15T09:18:42Z</time>
      </trkpt>
      <trkpt lat="47.438839115202427" lon="12.241630693897605">
        <ele>885.50999999999999</ele>
        <time>2013-09-15T09:18:46Z</time>
      </trkpt>
      <trkpt lat="47.438906924799085" lon="12.241754410788417">
        <ele>886.47000000000003</ele>
        <time>2013-09-15T09:18:53Z</time>
      </trkpt>
      <trkpt lat="47.438898039981723" lon="12.241892460733652">
        <ele>887.90999999999997</ele>
        <time>2013-09-15T09:19:06Z</time>
      </trkpt>
      <trkpt lat="47.438951432704926" lon="12.242021290585399">
        <ele>889.36000000000001</ele>
        <time>2013-09-15T09:19:17Z</time>
      </trkpt>
      <trkpt lat="47.439000466838479" lon="12.242175433784723">
        <ele>890.79999999999995</ele>
        <time>2013-09-15T09:19:32Z</time>
      </trkpt>
      <trkpt lat="47.439001556485891" lon="12.242418760433793">
        <ele>890.79999999999995</ele>
        <time>2013-09-15T09:19:45Z</time>
      </trkpt>
      <trkpt lat="47.438999377191067" lon="12.242622273042798">
        <ele>891.27999999999997</ele>
        <time>2013-09-15T09:19:55Z</time>
      </trkpt>
      <trkpt lat="47.438984541222453" lon="12.242754623293877">
        <ele>892.72000000000003</ele>
        <time>2013-09-15T09:20:04Z</time>
      </trkpt>
      <trkpt lat="47.438990492373705" lon="12.242769040167332">
        <ele>893.20000000000005</ele>
        <time>2013-09-15T09:20:05Z</time>
      </trkpt>
      <trkpt lat="47.439006920903921" lon="12.242822349071503">
        <ele>892.72000000000003</ele>
        <time>2013-09-15T09:20:11Z</time>
      </trkpt>
      <trkpt lat="47.439028294757009" lon="12.242918657138944">
        <ele>894.63999999999999</ele>
        <time>2013-09-15T09:20:18Z</time>
      </trkpt>
      <trkpt lat="47.439042627811432" lon="12.243016809225082">
        <ele>895.61000000000001</ele>
        <time>2013-09-15T09:20:26Z</time>
      </trkpt>
      <trkpt lat="47.439043885096908" lon="12.243041535839438">
        <ele>895.61000000000001</ele>
        <time>2013-09-15T09:20:33Z</time>
      </trkpt>
      <trkpt lat="47.439055116847157" lon="12.243069531396031">
        <ele>896.09000000000003</ele>
        <time>2013-09-15T09:20:42Z</time>
      </trkpt>
      <trkpt lat="47.439076993614435" lon="12.243093503639102">
        <ele>895.61000000000001</ele>
        <time>2013-09-15T09:20:52Z</time>
      </trkpt>
      <trkpt lat="47.439074730500579" lon="12.243092749267817">
        <ele>896.57000000000005</ele>
        <time>2013-09-15T09:21:03Z</time>
      </trkpt>
      <trkpt lat="47.439075987786055" lon="12.243092497810721">
        <ele>904.74000000000001</ele>
        <time>2013-09-15T09:21:04Z</time>
      </trkpt>
      <trkpt lat="47.439078837633133" lon="12.243091491982341">
        <ele>897.04999999999995</ele>
        <time>2013-09-15T09:21:05Z</time>
      </trkpt>
      <trkpt lat="47.439081436023116" lon="12.243091743439436">
        <ele>873.98000000000002</ele>
        <time>2013-09-15T09:21:07Z</time>
      </trkpt>
      <trkpt lat="47.439083363860846" lon="12.243092162534595">
        <ele>898.49000000000001</ele>
        <time>2013-09-15T09:21:08Z</time>
      </trkpt>
      <trkpt lat="47.439077328890562" lon="12.243093922734261">
        <ele>892.24000000000001</ele>
        <time>2013-09-15T09:21:10Z</time>
      </trkpt>
      <trkpt lat="47.439074227586389" lon="12.243097778409719">
        <ele>896.57000000000005</ele>
        <time>2013-09-15T09:21:11Z</time>
      </trkpt>
      <trkpt lat="47.439091242849827" lon="12.24311638623476">
        <ele>897.52999999999997</ele>
        <time>2013-09-15T09:21:27Z</time>
      </trkpt>
      <trkpt lat="47.439087890088558" lon="12.243130635470152">
        <ele>897.52999999999997</ele>
        <time>2013-09-15T09:21:40Z</time>
      </trkpt>
      <trkpt lat="47.439133655279875" lon="12.243233062326908">
        <ele>897.52999999999997</ele>
        <time>2013-09-15T09:21:51Z</time>
      </trkpt>
      <trkpt lat="47.439182102680206" lon="12.243271199986339">
        <ele>897.52999999999997</ele>
        <time>2013-09-15T09:21:59Z</time>
      </trkpt>
      <trkpt lat="47.439198782667518" lon="12.243286706507206">
        <ele>898.00999999999999</ele>
        <time>2013-09-15T09:22:09Z</time>
      </trkpt>
      <trkpt lat="47.439208254218102" lon="12.243372872471809">
        <ele>898.97000000000003</ele>
        <time>2013-09-15T09:22:20Z</time>
      </trkpt>
      <trkpt lat="47.439217055216432" lon="12.243483932688832">
        <ele>900.88999999999999</ele>
        <time>2013-09-15T09:22:32Z</time>
      </trkpt>
      <trkpt lat="47.439227281138301" lon="12.243564315140247">
        <ele>902.33000000000004</ele>
        <time>2013-09-15T09:22:40Z</time>
      </trkpt>
      <trkpt lat="47.439242620021105" lon="12.243612511083484">
        <ele>902.33000000000004</ele>
        <time>2013-09-15T09:22:55Z</time>
      </trkpt>
      <trkpt lat="47.439247481524944" lon="12.243737149983644">
        <ele>903.29999999999995</ele>
        <time>2013-09-15T09:23:06Z</time>
      </trkpt>
      <trkpt lat="47.439197273924947" lon="12.243834882974625">
        <ele>905.70000000000005</ele>
        <time>2013-09-15T09:23:18Z</time>
      </trkpt>
      <trkpt lat="47.439117897301912" lon="12.243931861594319">
        <ele>907.13999999999999</ele>
        <time>2013-09-15T09:23:30Z</time>
      </trkpt>
      <trkpt lat="47.439036509022117" lon="12.244003023952246">
        <ele>909.05999999999995</ele>
        <time>2013-09-15T09:23:41Z</time>
      </trkpt>
      <trkpt lat="47.438992168754339" lon="12.244026074185967">
        <ele>910.02999999999997</ele>
        <time>2013-09-15T09:23:51Z</time>
      </trkpt>
      <trkpt lat="47.438917150720954" lon="12.244042837992311">
        <ele>911.95000000000005</ele>
        <time>2013-09-15T09:24:02Z</time>
      </trkpt>
      <trkpt lat="47.438881024718285" lon="12.244048034772277">
        <ele>912.42999999999995</ele>
        <time>2013-09-15T09:24:12Z</time>
      </trkpt>
      <trkpt lat="47.438883455470204" lon="12.244047783315182">
        <ele>912.42999999999995</ele>
        <time>2013-09-15T09:24:27Z</time>
      </trkpt>
      <trkpt lat="47.438863506540656" lon="12.244060272350907">
        <ele>912.90999999999997</ele>
        <time>2013-09-15T09:24:32Z</time>
      </trkpt>
      <trkpt lat="47.438810532912612" lon="12.244098577648401">
        <ele>913.87</ele>
        <time>2013-09-15T09:24:43Z</time>
      </trkpt>
      <trkpt lat="47.438759738579392" lon="12.244144007563591">
        <ele>914.83000000000004</ele>
        <time>2013-09-15T09:24:54Z</time>
      </trkpt>
      <trkpt lat="47.438713554292917" lon="12.244212739169598">
        <ele>917.24000000000001</ele>
        <time>2013-09-15T09:25:04Z</time>
      </trkpt>
      <trkpt lat="47.438660832121968" lon="12.244307706132531">
        <ele>918.67999999999995</ele>
        <time>2013-09-15T09:25:14Z</time>
      </trkpt>
      <trkpt lat="47.438626466318965" lon="12.244436033070087">
        <ele>920.12</ele>
        <time>2013-09-15T09:25:27Z</time>
      </trkpt>
      <trkpt lat="47.438597297295928" lon="12.244542734697461">
        <ele>922.03999999999996</ele>
        <time>2013-09-15T09:25:38Z</time>
      </trkpt>
      <trkpt lat="47.43856561370194" lon="12.244607359170914">
        <ele>923.48000000000002</ele>
        <time>2013-09-15T09:25:46Z</time>
      </trkpt>
      <trkpt lat="47.438528900966048" lon="12.244701236486435">
        <ele>925.40999999999997</ele>
        <time>2013-09-15T09:25:59Z</time>
      </trkpt>
      <trkpt lat="47.438531331717968" lon="12.244718670845032">
        <ele>925.88999999999999</ele>
        <time>2013-09-15T09:26:02Z</time>
      </trkpt>
      <trkpt lat="47.438535857945681" lon="12.244734177365899">
        <ele>926.37</ele>
        <time>2013-09-15T09:26:14Z</time>
      </trkpt>
      <trkpt lat="47.438459834083915" lon="12.244789581745863">
        <ele>928.28999999999996</ele>
        <time>2013-09-15T09:26:26Z</time>
      </trkpt>
      <trkpt lat="47.438448602333665" lon="12.244793269783258">
        <ele>928.76999999999998</ele>
        <time>2013-09-15T09:26:27Z</time>
      </trkpt>
      <trkpt lat="47.438427982851863" lon="12.244897289201617">
        <ele>930.69000000000005</ele>
        <time>2013-09-15T09:26:37Z</time>
      </trkpt>
      <trkpt lat="47.43842002004385" lon="12.244914555922151">
        <ele>931.64999999999998</ele>
        <time>2013-09-15T09:26:40Z</time>
      </trkpt>
      <trkpt lat="47.438384061679244" lon="12.244995189830661">
        <ele>932.62</ele>
        <time>2013-09-15T09:26:50Z</time>
      </trkpt>
      <trkpt lat="47.438336871564388" lon="12.245066771283746">
        <ele>934.05999999999995</ele>
        <time>2013-09-15T09:26:58Z</time>
      </trkpt>
      <trkpt lat="47.438320610672235" lon="12.245088731870055">
        <ele>935.01999999999998</ele>
        <time>2013-09-15T09:27:01Z</time>
      </trkpt>
      <trkpt lat="47.438233690336347" lon="12.245140448212624">
        <ele>936.46000000000004</ele>
        <time>2013-09-15T09:27:11Z</time>
      </trkpt>
      <trkpt lat="47.438186332583427" lon="12.245200295001268">
        <ele>937.89999999999998</ele>
        <time>2013-09-15T09:27:18Z</time>
      </trkpt>
      <trkpt lat="47.438137717545033" lon="12.245298950001597">
        <ele>939.35000000000002</ele>
        <time>2013-09-15T09:27:29Z</time>
      </trkpt>
      <trkpt lat="47.438126904889941" lon="12.245330968871713">
        <ele>938.86000000000001</ele>
        <time>2013-09-15T09:27:39Z</time>
      </trkpt>
      <trkpt lat="47.438071416690946" lon="12.24545837379992">
        <ele>940.78999999999996</ele>
        <time>2013-09-15T09:27:53Z</time>
      </trkpt>
      <trkpt lat="47.438064459711313" lon="12.245492488145828">
        <ele>942.23000000000002</ele>
        <time>2013-09-15T09:27:57Z</time>
      </trkpt>
      <trkpt lat="47.437975192442536" lon="12.245522495359182">
        <ele>943.66999999999996</ele>
        <time>2013-09-15T09:28:09Z</time>
      </trkpt>
      <trkpt lat="47.437910819426179" lon="12.245565159246325">
        <ele>945.11000000000001</ele>
        <time>2013-09-15T09:28:17Z</time>
      </trkpt>
      <trkpt lat="47.437855498865247" lon="12.245594076812267">
        <ele>946.07000000000005</ele>
        <time>2013-09-15T09:28:25Z</time>
      </trkpt>
      <trkpt lat="47.437766650691628" lon="12.24566264078021">
        <ele>948.96000000000004</ele>
        <time>2013-09-15T09:28:39Z</time>
      </trkpt>
      <trkpt lat="47.437759693711996" lon="12.245678566396236">
        <ele>947.51999999999998</ele>
        <time>2013-09-15T09:28:44Z</time>
      </trkpt>
      <trkpt lat="47.437711246311665" lon="12.245698934420943">
        <ele>948</ele>
        <time>2013-09-15T09:29:01Z</time>
      </trkpt>
      <trkpt lat="47.43772373534739" lon="12.245709830895066">
        <ele>948</ele>
        <time>2013-09-15T09:29:25Z</time>
      </trkpt>
      <trkpt lat="47.437742175534368" lon="12.245716284960508">
        <ele>947.51999999999998</ele>
        <time>2013-09-15T09:29:42Z</time>
      </trkpt>
      <trkpt lat="47.437772937119007" lon="12.245730618014932">
        <ele>949.44000000000005</ele>
        <time>2013-09-15T09:29:51Z</time>
      </trkpt>
      <trkpt lat="47.437778217718005" lon="12.245735228061676">
        <ele>949.44000000000005</ele>
        <time>2013-09-15T09:30:02Z</time>
      </trkpt>
      <trkpt lat="47.437770841643214" lon="12.245766827836633">
        <ele>949.91999999999996</ele>
        <time>2013-09-15T09:30:25Z</time>
      </trkpt>
      <trkpt lat="47.437721723690629" lon="12.245777221396565">
        <ele>949.44000000000005</ele>
        <time>2013-09-15T09:30:28Z</time>
      </trkpt>
      <trkpt lat="47.437701104208827" lon="12.245798427611589">
        <ele>951.36000000000001</ele>
        <time>2013-09-15T09:30:37Z</time>
      </trkpt>
      <trkpt lat="47.437690878286958" lon="12.245814269408584">
        <ele>952.79999999999995</ele>
        <time>2013-09-15T09:30:42Z</time>
      </trkpt>
      <trkpt lat="47.437631115317345" lon="12.245862130075693">
        <ele>955.21000000000004</ele>
        <time>2013-09-15T09:30:53Z</time>
      </trkpt>
      <trkpt lat="47.437587948516011" lon="12.24586883559823">
        <ele>955.69000000000005</ele>
        <time>2013-09-15T09:30:57Z</time>
      </trkpt>
      <trkpt lat="47.43745937012136" lon="12.245794320479035">
        <ele>957.61000000000001</ele>
        <time>2013-09-15T09:31:03Z</time>
      </trkpt>
      <trkpt lat="47.437346046790481" lon="12.245849557220936">
        <ele>959.04999999999995</ele>
        <time>2013-09-15T09:31:11Z</time>
      </trkpt>
      <trkpt lat="47.43728443980217" lon="12.245889874175191">
        <ele>960.00999999999999</ele>
        <time>2013-09-15T09:31:16Z</time>
      </trkpt>
      <trkpt lat="47.437273124232888" lon="12.245904542505741">
        <ele>959.52999999999997</ele>
        <time>2013-09-15T09:31:17Z</time>
      </trkpt>
      <trkpt lat="47.437235908582807" lon="12.245993809774518">
        <ele>960.98000000000002</ele>
        <time>2013-09-15T09:31:24Z</time>
      </trkpt>
      <trkpt lat="47.437206823378801" lon="12.246039491146803">
        <ele>961.46000000000004</ele>
        <time>2013-09-15T09:31:26Z</time>
      </trkpt>
      <trkpt lat="47.437187042087317" lon="12.246047789230943">
        <ele>961.94000000000005</ele>
        <time>2013-09-15T09:31:28Z</time>
      </trkpt>
      <trkpt lat="47.437161980196834" lon="12.246131524443626">
        <ele>962.89999999999998</ele>
        <time>2013-09-15T09:31:36Z</time>
      </trkpt>
      <trkpt lat="47.437137169763446" lon="12.24620939232409">
        <ele>963.86000000000001</ele>
        <time>2013-09-15T09:31:43Z</time>
      </trkpt>
      <trkpt lat="47.437121076509356" lon="12.246219702064991">
        <ele>964.82000000000005</ele>
        <time>2013-09-15T09:31:45Z</time>
      </trkpt>
      <trkpt lat="47.437138007953763" lon="12.246294133365154">
        <ele>965.29999999999995</ele>
        <time>2013-09-15T09:31:53Z</time>
      </trkpt>
      <trkpt lat="47.437133733183146" lon="12.246323637664318">
        <ele>967.22000000000003</ele>
        <time>2013-09-15T09:32:00Z</time>
      </trkpt>
      <trkpt lat="47.437105318531394" lon="12.246399493888021">
        <ele>969.14999999999998</ele>
        <time>2013-09-15T09:32:08Z</time>
      </trkpt>
      <trkpt lat="47.43711638264358" lon="12.246488677337766">
        <ele>970.59000000000003</ele>
        <time>2013-09-15T09:32:19Z</time>
      </trkpt>
      <trkpt lat="47.437123926356435" lon="12.2465128172189">
        <ele>971.07000000000005</ele>
        <time>2013-09-15T09:32:22Z</time>
      </trkpt>
      <trkpt lat="47.43706944398582" lon="12.246607532724738">
        <ele>972.50999999999999</ele>
        <time>2013-09-15T09:32:31Z</time>
      </trkpt>
      <trkpt lat="47.437028288841248" lon="12.246628571301699">
        <ele>972.99000000000001</ele>
        <time>2013-09-15T09:32:36Z</time>
      </trkpt>
      <trkpt lat="47.436919156461954" lon="12.246614322066307">
        <ele>973.47000000000003</ele>
        <time>2013-09-15T09:32:48Z</time>
      </trkpt>
      <trkpt lat="47.436821172013879" lon="12.246628068387508">
        <ele>973.95000000000005</ele>
        <time>2013-09-15T09:33:06Z</time>
      </trkpt>
      <trkpt lat="47.43680072017014" lon="12.246639467775822">
        <ele>974.42999999999995</ele>
        <time>2013-09-15T09:33:08Z</time>
      </trkpt>
      <trkpt lat="47.436776915565133" lon="12.24664868786931">
        <ele>974.90999999999997</ele>
        <time>2013-09-15T09:33:11Z</time>
      </trkpt>
      <trkpt lat="47.436737352982163" lon="12.246702667325735">
        <ele>975.38999999999999</ele>
        <time>2013-09-15T09:33:19Z</time>
      </trkpt>
      <trkpt lat="47.436721175909042" lon="12.246731668710709">
        <ele>976.36000000000001</ele>
        <time>2013-09-15T09:33:22Z</time>
      </trkpt>
      <trkpt lat="47.436709692701697" lon="12.246736362576485">
        <ele>976.36000000000001</ele>
        <time>2013-09-15T09:33:23Z</time>
      </trkpt>
      <trkpt lat="47.436593351885676" lon="12.246828731149435">
        <ele>977.79999999999995</ele>
        <time>2013-09-15T09:33:35Z</time>
      </trkpt>
      <trkpt lat="47.43659159168601" lon="12.246831580996513">
        <ele>978.27999999999997</ele>
        <time>2013-09-15T09:33:36Z</time>
      </trkpt>
      <trkpt lat="47.436616653576493" lon="12.246926296502352">
        <ele>980.20000000000005</ele>
        <time>2013-09-15T09:33:45Z</time>
      </trkpt>
      <trkpt lat="47.436585053801537" lon="12.246969295665622">
        <ele>981.15999999999997</ele>
        <time>2013-09-15T09:33:50Z</time>
      </trkpt>
      <trkpt lat="47.436511712148786" lon="12.24701858125627">
        <ele>982.60000000000002</ele>
        <time>2013-09-15T09:33:59Z</time>
      </trkpt>
      <trkpt lat="47.43647919036448" lon="12.247046995908022">
        <ele>982.60000000000002</ele>
        <time>2013-09-15T09:34:04Z</time>
      </trkpt>
      <trkpt lat="47.436341140419245" lon="12.247078008949757">
        <ele>986.45000000000005</ele>
        <time>2013-09-15T09:34:24Z</time>
      </trkpt>
      <trkpt lat="47.436329238116741" lon="12.247113632038236">
        <ele>986.92999999999995</ele>
        <time>2013-09-15T09:34:30Z</time>
      </trkpt>
      <trkpt lat="47.436274755746126" lon="12.24717540666461">
        <ele>988.85000000000002</ele>
        <time>2013-09-15T09:34:41Z</time>
      </trkpt>
      <trkpt lat="47.436265032738447" lon="12.24725847132504">
        <ele>990.29999999999995</ele>
        <time>2013-09-15T09:34:51Z</time>
      </trkpt>
      <trkpt lat="47.436190601438284" lon="12.247315887361765">
        <ele>991.25999999999999</ele>
        <time>2013-09-15T09:35:00Z</time>
      </trkpt>
      <trkpt lat="47.436142237856984" lon="12.247393922880292">
        <ele>993.17999999999995</ele>
        <time>2013-09-15T09:35:10Z</time>
      </trkpt>
      <trkpt lat="47.436198983341455" lon="12.247454104945064">
        <ele>994.62</ele>
        <time>2013-09-15T09:35:21Z</time>
      </trkpt>
      <trkpt lat="47.436262601986527" lon="12.24746173247695">
        <ele>993.17999999999995</ele>
        <time>2013-09-15T09:35:23Z</time>
      </trkpt>
      <trkpt lat="47.436282718554139" lon="12.247471204027534">
        <ele>993.17999999999995</ele>
        <time>2013-09-15T09:35:24Z</time>
      </trkpt>
      <trkpt lat="47.436313647776842" lon="12.247497187927365">
        <ele>994.62</ele>
        <time>2013-09-15T09:35:26Z</time>
      </trkpt>
      <trkpt lat="47.436313228681684" lon="12.247503306716681">
        <ele>993.65999999999997</ele>
        <time>2013-09-15T09:35:27Z</time>
      </trkpt>
      <trkpt lat="47.436314234510064" lon="12.247495846822858">
        <ele>992.70000000000005</ele>
        <time>2013-09-15T09:36:07Z</time>
      </trkpt>
      <trkpt lat="47.436316413804889" lon="12.247496852651238">
        <ele>994.62</ele>
        <time>2013-09-15T09:36:08Z</time>
      </trkpt>
      <trkpt lat="47.436301913112402" lon="12.247496601194143">
        <ele>992.22000000000003</ele>
        <time>2013-09-15T09:36:09Z</time>
      </trkpt>
      <trkpt lat="47.436303338035941" lon="12.247497523203492">
        <ele>994.62</ele>
        <time>2013-09-15T09:36:10Z</time>
      </trkpt>
      <trkpt lat="47.436241982504725" lon="12.247529039159417">
        <ele>993.17999999999995</ele>
        <time>2013-09-15T09:36:20Z</time>
      </trkpt>
      <trkpt lat="47.43624416179955" lon="12.247548401355743">
        <ele>996.05999999999995</ele>
        <time>2013-09-15T09:36:30Z</time>
      </trkpt>
      <trkpt lat="47.436242569237947" lon="12.247561644762754">
        <ele>993.65999999999997</ele>
        <time>2013-09-15T09:36:45Z</time>
      </trkpt>
      <trkpt lat="47.436224715784192" lon="12.247564410790801">
        <ele>997.01999999999998</ele>
        <time>2013-09-15T09:36:46Z</time>
      </trkpt>
      <trkpt lat="47.436216250061989" lon="12.247572876513004">
        <ele>993.65999999999997</ele>
        <time>2013-09-15T09:36:47Z</time>
      </trkpt>
      <trkpt lat="47.43621583096683" lon="12.247571954503655">
        <ele>995.10000000000002</ele>
        <time>2013-09-15T09:36:48Z</time>
      </trkpt>
      <trkpt lat="47.436215244233608" lon="12.247572205960751">
        <ele>995.10000000000002</ele>
        <time>2013-09-15T09:36:49Z</time>
      </trkpt>
      <trkpt lat="47.436224045231938" lon="12.247582264244556">
        <ele>996.53999999999996</ele>
        <time>2013-09-15T09:36:51Z</time>
      </trkpt>
      <trkpt lat="47.436307528987527" lon="12.247624425217509">
        <ele>997.01999999999998</ele>
        <time>2013-09-15T09:37:12Z</time>
      </trkpt>
      <trkpt lat="47.436239551752806" lon="12.247621407732368">
        <ele>1032.1099999999999</ele>
        <time>2013-09-15T09:42:01Z</time>
      </trkpt>
      <trkpt lat="47.436201330274343" lon="12.247719308361411">
        <ele>1034.52</ele>
        <time>2013-09-15T09:42:18Z</time>
      </trkpt>
      <trkpt lat="47.436192613095045" lon="12.247852245345712">
        <ele>1037.8800000000001</ele>
        <time>2013-09-15T09:42:36Z</time>
      </trkpt>
      <trkpt lat="47.436023717746139" lon="12.247890634462237">
        <ele>1039.3199999999999</ele>
        <time>2013-09-15T09:42:55Z</time>
      </trkpt>
      <trkpt lat="47.43580486625433" lon="12.247989205643535">
        <ele>1042.21</ele>
        <time>2013-09-15T09:43:19Z</time>
      </trkpt>
      <trkpt lat="47.435491466894746" lon="12.248154580593109">
        <ele>1043.6500000000001</ele>
        <time>2013-09-15T09:43:36Z</time>
      </trkpt>
      <trkpt lat="47.434938512742519" lon="12.248382065445185">
        <ele>1047.01</ele>
        <time>2013-09-15T09:43:53Z</time>
      </trkpt>
      <trkpt lat="47.434533415362239" lon="12.24827142432332">
        <ele>1047.97</ele>
        <time>2013-09-15T09:44:10Z</time>
      </trkpt>
      <trkpt lat="47.434307271614671" lon="12.248265724629164">
        <ele>1050.8599999999999</ele>
        <time>2013-09-15T09:44:28Z</time>
      </trkpt>
      <trkpt lat="47.434136867523193" lon="12.248321212828159">
        <ele>1053.74</ele>
        <time>2013-09-15T09:44:48Z</time>
      </trkpt>
      <trkpt lat="47.434044163674116" lon="12.248302353546023">
        <ele>1056.1500000000001</ele>
        <time>2013-09-15T09:45:10Z</time>
      </trkpt>
      <trkpt lat="47.433859761804342" lon="12.248451048508286">
        <ele>1057.1099999999999</ele>
        <time>2013-09-15T09:45:28Z</time>
      </trkpt>
      <trkpt lat="47.433721544221044" lon="12.248669229447842">
        <ele>1059.03</ele>
        <time>2013-09-15T09:45:48Z</time>
      </trkpt>
      <trkpt lat="47.43360310792923" lon="12.248910795897245">
        <ele>1061.9100000000001</ele>
        <time>2013-09-15T09:46:03Z</time>
      </trkpt>
      <trkpt lat="47.433520630002022" lon="12.248765118420124">
        <ele>1064.3199999999999</ele>
        <time>2013-09-15T09:46:27Z</time>
      </trkpt>
      <trkpt lat="47.433445528149605" lon="12.248622374609113">
        <ele>1065.28</ele>
        <time>2013-09-15T09:46:54Z</time>
      </trkpt>
      <trkpt lat="47.433534376323223" lon="12.248258348554373">
        <ele>1071.53</ele>
        <time>2013-09-15T09:50:39Z</time>
      </trkpt>
      <trkpt lat="47.433499759063125" lon="12.248110910877585">
        <ele>1073.9300000000001</ele>
        <time>2013-09-15T09:50:54Z</time>
      </trkpt>
      <trkpt lat="47.433501100167632" lon="12.247940842062235">
        <ele>1076.3299999999999</ele>
        <time>2013-09-15T09:51:12Z</time>
      </trkpt>
      <trkpt lat="47.433504788205028" lon="12.247689301148057">
        <ele>1077.78</ele>
        <time>2013-09-15T09:51:30Z</time>
      </trkpt>
      <trkpt lat="47.433484084904194" lon="12.247586455196142">
        <ele>1078.26</ele>
        <time>2013-09-15T09:51:40Z</time>
      </trkpt>
      <trkpt lat="47.433420298621058" lon="12.247458044439554">
        <ele>1079.22</ele>
        <time>2013-09-15T09:51:55Z</time>
      </trkpt>
      <trkpt lat="47.433488024398685" lon="12.247391995042562">
        <ele>1079.22</ele>
        <time>2013-09-15T09:52:13Z</time>
      </trkpt>
      <trkpt lat="47.433482743799686" lon="12.247404232621193">
        <ele>1080.6600000000001</ele>
        <time>2013-09-15T09:52:32Z</time>
      </trkpt>
      <trkpt lat="47.433580476790667" lon="12.247333992272615">
        <ele>1083.0599999999999</ele>
        <time>2013-09-15T09:52:51Z</time>
      </trkpt>
      <trkpt lat="47.433592798188329" lon="12.247283617034554">
        <ele>1085.47</ele>
        <time>2013-09-15T09:53:08Z</time>
      </trkpt>
      <trkpt lat="47.433649292215705" lon="12.24721061065793">
        <ele>1086.9100000000001</ele>
        <time>2013-09-15T09:53:25Z</time>
      </trkpt>
      <trkpt lat="47.433805195614696" lon="12.246889499947429">
        <ele>1089.3099999999999</ele>
        <time>2013-09-15T09:53:42Z</time>
      </trkpt>
      <trkpt lat="47.433927236124873" lon="12.246572580188513">
        <ele>1090.75</ele>
        <time>2013-09-15T09:53:59Z</time>
      </trkpt>
      <trkpt lat="47.433974258601665" lon="12.246232945472002">
        <ele>1092.6800000000001</ele>
        <time>2013-09-15T09:54:15Z</time>
      </trkpt>
      <trkpt lat="47.433837717399001" lon="12.246054327115417">
        <ele>1094.1199999999999</ele>
        <time>2013-09-15T09:54:29Z</time>
      </trkpt>
      <trkpt lat="47.433776529505849" lon="12.245816616341472">
        <ele>1096.04</ele>
        <time>2013-09-15T09:54:47Z</time>
      </trkpt>
      <trkpt lat="47.433788767084479" lon="12.245748974382877">
        <ele>1096.52</ele>
        <time>2013-09-15T09:54:52Z</time>
      </trkpt>
      <trkpt lat="47.433833107352257" lon="12.245624838396907">
        <ele>1097.96</ele>
        <time>2013-09-15T09:55:03Z</time>
      </trkpt>
      <trkpt lat="47.433873675763607" lon="12.245447393506765">
        <ele>1099.4000000000001</ele>
        <time>2013-09-15T09:55:20Z</time>
      </trkpt>
      <trkpt lat="47.433951208367944" lon="12.245257208123803">
        <ele>1100.3699999999999</ele>
        <time>2013-09-15T09:55:35Z</time>
      </trkpt>
      <trkpt lat="47.433947436511517" lon="12.245077416300774">
        <ele>1102.77</ele>
        <time>2013-09-15T09:55:53Z</time>
      </trkpt>
      <trkpt lat="47.434140387922525" lon="12.244872143492103">
        <ele>1104.21</ele>
        <time>2013-09-15T09:56:11Z</time>
      </trkpt>
      <trkpt lat="47.434087749570608" lon="12.244668798521161">
        <ele>1107.0999999999999</ele>
        <time>2013-09-15T09:56:32Z</time>
      </trkpt>
      <trkpt lat="47.434037206694484" lon="12.244465788826346">
        <ele>1109.02</ele>
        <time>2013-09-15T09:56:49Z</time>
      </trkpt>
      <trkpt lat="47.434049025177956" lon="12.244336791336536">
        <ele>1110.9400000000001</ele>
        <time>2013-09-15T09:57:07Z</time>
      </trkpt>
      <trkpt lat="47.434055898338556" lon="12.244264036417007">
        <ele>1110.46</ele>
        <time>2013-09-15T09:57:25Z</time>
      </trkpt>
      <trkpt lat="47.434062855318189" lon="12.244288930669427">
        <ele>1110.9400000000001</ele>
        <time>2013-09-15T09:57:52Z</time>
      </trkpt>
      <trkpt lat="47.434046510607004" lon="12.244254061952233">
        <ele>1110.9400000000001</ele>
        <time>2013-09-15T09:58:12Z</time>
      </trkpt>
      <trkpt lat="47.43399010039866" lon="12.244092291221023">
        <ele>1112.3800000000001</ele>
        <time>2013-09-15T09:58:29Z</time>
      </trkpt>
      <trkpt lat="47.434042990207672" lon="12.243875032290816">
        <ele>1114.3099999999999</ele>
        <time>2013-09-15T09:58:49Z</time>
      </trkpt>
      <trkpt lat="47.434043157845736" lon="12.243721643462777">
        <ele>1115.75</ele>
        <time>2013-09-15T09:59:04Z</time>
      </trkpt>
      <trkpt lat="47.43399990722537" lon="12.243547048419714">
        <ele>1118.1500000000001</ele>
        <time>2013-09-15T09:59:20Z</time>
      </trkpt>
      <trkpt lat="47.433883231133223" lon="12.243316043168306">
        <ele>1120.0699999999999</ele>
        <time>2013-09-15T09:59:36Z</time>
      </trkpt>
      <trkpt lat="47.433834951370955" lon="12.243176149204373">
        <ele>1122.48</ele>
        <time>2013-09-15T09:59:54Z</time>
      </trkpt>
      <trkpt lat="47.43358600884676" lon="12.24296685308218">
        <ele>1124.8800000000001</ele>
        <time>2013-09-15T10:00:13Z</time>
      </trkpt>
      <trkpt lat="47.433537477627397" lon="12.242876747623086">
        <ele>1126.3199999999999</ele>
        <time>2013-09-15T10:00:30Z</time>
      </trkpt>
      <trkpt lat="47.433398086577654" lon="12.242783457040787">
        <ele>1127.76</ele>
        <time>2013-09-15T10:00:48Z</time>
      </trkpt>
      <trkpt lat="47.433401690796018" lon="12.242764430120587">
        <ele>1127.76</ele>
        <time>2013-09-15T10:01:04Z</time>
      </trkpt>
      <trkpt lat="47.433394230902195" lon="12.242730651050806">
        <ele>1128.73</ele>
        <time>2013-09-15T10:01:22Z</time>
      </trkpt>
      <trkpt lat="47.43324008770287" lon="12.242546584457159">
        <ele>1130.6500000000001</ele>
        <time>2013-09-15T10:01:41Z</time>
      </trkpt>
      <trkpt lat="47.433163058012724" lon="12.24255152978003">
        <ele>1132.5699999999999</ele>
        <time>2013-09-15T10:02:02Z</time>
      </trkpt>
      <trkpt lat="47.433102792128921" lon="12.242687903344631">
        <ele>1134.49</ele>
        <time>2013-09-15T10:02:18Z</time>
      </trkpt>
      <trkpt lat="47.433130452409387" lon="12.242801478132606">
        <ele>1136.4200000000001</ele>
        <time>2013-09-15T10:02:34Z</time>
      </trkpt>
      <trkpt lat="47.433285433799028" lon="12.242957381531596">
        <ele>1139.3</ele>
        <time>2013-09-15T10:02:51Z</time>
      </trkpt>
      <trkpt lat="47.43335148319602" lon="12.243083445355296">
        <ele>1141.22</ele>
        <time>2013-09-15T10:03:09Z</time>
      </trkpt>
      <trkpt lat="47.433294486254454" lon="12.243128791451454">
        <ele>1141.7</ele>
        <time>2013-09-15T10:03:25Z</time>
      </trkpt>
      <trkpt lat="47.43326741270721" lon="12.243115631863475">
        <ele>1142.1800000000001</ele>
        <time>2013-09-15T10:03:50Z</time>
      </trkpt>
      <trkpt lat="47.433229694142938" lon="12.243127366527915">
        <ele>1143.1400000000001</ele>
        <time>2013-09-15T10:04:13Z</time>
      </trkpt>
      <trkpt lat="47.433068677783012" lon="12.243036758154631">
        <ele>1144.5899999999999</ele>
        <time>2013-09-15T10:04:33Z</time>
      </trkpt>
      <trkpt lat="47.432948648929596" lon="12.242872975766659">
        <ele>1147.95</ele>
        <time>2013-09-15T10:04:49Z</time>
      </trkpt>
      <trkpt lat="47.432810179889202" lon="12.242715647444129">
        <ele>1150.8399999999999</ele>
        <time>2013-09-15T10:05:08Z</time>
      </trkpt>
      <trkpt lat="47.432672549039125" lon="12.242539040744305">
        <ele>1153.72</ele>
        <time>2013-09-15T10:05:29Z</time>
      </trkpt>
      <trkpt lat="47.432530643418431" lon="12.242420436814427">
        <ele>1155.1600000000001</ele>
        <time>2013-09-15T10:05:46Z</time>
      </trkpt>
      <trkpt lat="47.432384798303246" lon="12.242255816236138">
        <ele>1157.0799999999999</ele>
        <time>2013-09-15T10:06:04Z</time>
      </trkpt>
      <trkpt lat="47.432359484955668" lon="12.242227233946323">
        <ele>1158.53</ele>
        <time>2013-09-15T10:06:27Z</time>
      </trkpt>
      <trkpt lat="47.432226128876209" lon="12.242152635008097">
        <ele>1160.45</ele>
        <time>2013-09-15T10:06:45Z</time>
      </trkpt>
      <trkpt lat="47.432088581845164" lon="12.242144420742989">
        <ele>1162.3699999999999</ele>
        <time>2013-09-15T10:07:02Z</time>
      </trkpt>
      <trkpt lat="47.431923374533653" lon="12.242092536762357">
        <ele>1164.77</ele>
        <time>2013-09-15T10:07:21Z</time>
      </trkpt>
      <trkpt lat="47.431823462247849" lon="12.241948032751679">
        <ele>1167.6600000000001</ele>
        <time>2013-09-15T10:07:40Z</time>
      </trkpt>
      <trkpt lat="47.431736122816801" lon="12.241828087717295">
        <ele>1169.0999999999999</ele>
        <time>2013-09-15T10:07:55Z</time>
      </trkpt>
      <trkpt lat="47.431603940203786" lon="12.241762289777398">
        <ele>1171.02</ele>
        <time>2013-09-15T10:08:10Z</time>
      </trkpt>
      <trkpt lat="47.431536801159382" lon="12.241767654195428">
        <ele>1171.98</ele>
        <time>2013-09-15T10:08:22Z</time>
      </trkpt>
      <trkpt lat="47.431479217484593" lon="12.241733456030488">
        <ele>1172.47</ele>
        <time>2013-09-15T10:08:37Z</time>
      </trkpt>
      <trkpt lat="47.431479804217815" lon="12.241762625053525">
        <ele>1172.47</ele>
        <time>2013-09-15T10:08:54Z</time>
      </trkpt>
      <trkpt lat="47.431491706520319" lon="12.241856167092919">
        <ele>1172.95</ele>
        <time>2013-09-15T10:09:04Z</time>
      </trkpt>
      <trkpt lat="47.43153914809227" lon="12.24187234416604">
        <ele>1173.4300000000001</ele>
        <time>2013-09-15T10:09:08Z</time>
      </trkpt>
      <trkpt lat="47.431680886074901" lon="12.241989271715283">
        <ele>1175.8299999999999</ele>
        <time>2013-09-15T10:09:26Z</time>
      </trkpt>
      <trkpt lat="47.431724974885583" lon="12.242027660831809">
        <ele>1176.3099999999999</ele>
        <time>2013-09-15T10:09:45Z</time>
      </trkpt>
      <trkpt lat="47.431741319596767" lon="12.242035288363695">
        <ele>1176.79</ele>
        <time>2013-09-15T10:10:07Z</time>
      </trkpt>
      <trkpt lat="47.431739643216133" lon="12.242174344137311">
        <ele>1176.3099999999999</ele>
        <time>2013-09-15T10:10:22Z</time>
      </trkpt>
      <trkpt lat="47.43173997849226" lon="12.242177361622453">
        <ele>1178.23</ele>
        <time>2013-09-15T10:10:24Z</time>
      </trkpt>
      <trkpt lat="47.431751545518637" lon="12.242220779880881">
        <ele>1177.75</ele>
        <time>2013-09-15T10:10:48Z</time>
      </trkpt>
      <trkpt lat="47.431767052039504" lon="12.242264281958342">
        <ele>1178.71</ele>
        <time>2013-09-15T10:10:57Z</time>
      </trkpt>
      <trkpt lat="47.431861935183406" lon="12.242395877838135">
        <ele>1181.1199999999999</ele>
        <time>2013-09-15T10:11:17Z</time>
      </trkpt>
      <trkpt lat="47.431951956823468" lon="12.24257055670023">
        <ele>1182.0799999999999</ele>
        <time>2013-09-15T10:11:34Z</time>
      </trkpt>
      <trkpt lat="47.432057401165366" lon="12.242742637172341">
        <ele>1183.52</ele>
        <time>2013-09-15T10:11:48Z</time>
      </trkpt>
      <trkpt lat="47.43212160654366" lon="12.242892337962985">
        <ele>1185.4400000000001</ele>
        <time>2013-09-15T10:12:04Z</time>
      </trkpt>
      <trkpt lat="47.432185225188732" lon="12.243093336001039">
        <ele>1186.8800000000001</ele>
        <time>2013-09-15T10:12:21Z</time>
      </trkpt>
      <trkpt lat="47.432233421131968" lon="12.243238175287843">
        <ele>1188.8099999999999</ele>
        <time>2013-09-15T10:12:36Z</time>
      </trkpt>
      <trkpt lat="47.432291759178042" lon="12.243387792259455">
        <ele>1190.73</ele>
        <time>2013-09-15T10:12:50Z</time>
      </trkpt>
      <trkpt lat="47.43235026486218" lon="12.243546042591333">
        <ele>1192.6500000000001</ele>
        <time>2013-09-15T10:13:07Z</time>
      </trkpt>
      <trkpt lat="47.432400723919272" lon="12.243708986788988">
        <ele>1194.0899999999999</ele>
        <time>2013-09-15T10:13:20Z</time>
      </trkpt>
      <trkpt lat="47.432437185198069" lon="12.243860783055425">
        <ele>1196.02</ele>
        <time>2013-09-15T10:13:32Z</time>
      </trkpt>
      <trkpt lat="47.432433413341641" lon="12.24401886574924">
        <ele>1197.46</ele>
        <time>2013-09-15T10:13:46Z</time>
      </trkpt>
      <trkpt lat="47.432428300380707" lon="12.244059350341558">
        <ele>1197.9400000000001</ele>
        <time>2013-09-15T10:14:06Z</time>
      </trkpt>
      <trkpt lat="47.432457637041807" lon="12.244216343387961">
        <ele>1198.9000000000001</ele>
        <time>2013-09-15T10:14:23Z</time>
      </trkpt>
      <trkpt lat="47.432454284280539" lon="12.244203351438046">
        <ele>1198.9000000000001</ele>
        <time>2013-09-15T10:14:44Z</time>
      </trkpt>
      <trkpt lat="47.432455457746983" lon="12.244173008948565">
        <ele>1198.4200000000001</ele>
        <time>2013-09-15T10:15:03Z</time>
      </trkpt>
      <trkpt lat="47.432405920699239" lon="12.243950637057424">
        <ele>1198.4200000000001</ele>
        <time>2013-09-15T10:15:20Z</time>
      </trkpt>
      <trkpt lat="47.432286478579044" lon="12.243914762511849">
        <ele>1199.8599999999999</ele>
        <time>2013-09-15T10:15:34Z</time>
      </trkpt>
      <trkpt lat="47.432217914611101" lon="12.24376380443573">
        <ele>1201.3</ele>
        <time>2013-09-15T10:15:50Z</time>
      </trkpt>
      <trkpt lat="47.43209520354867" lon="12.243650648742914">
        <ele>1202.75</ele>
        <time>2013-09-15T10:16:06Z</time>
      </trkpt>
      <trkpt lat="47.43195497430861" lon="12.243574541062117">
        <ele>1203.71</ele>
        <time>2013-09-15T10:16:21Z</time>
      </trkpt>
      <trkpt lat="47.431888757273555" lon="12.243460044264793">
        <ele>1205.1500000000001</ele>
        <time>2013-09-15T10:16:40Z</time>
      </trkpt>
      <trkpt lat="47.431897055357695" lon="12.243428863584995">
        <ele>1206.1099999999999</ele>
        <time>2013-09-15T10:16:53Z</time>
      </trkpt>
      <trkpt lat="47.431834107264876" lon="12.24336314946413">
        <ele>1207.0699999999999</ele>
        <time>2013-09-15T10:17:09Z</time>
      </trkpt>
      <trkpt lat="47.431769566610456" lon="12.243319982662797">
        <ele>1208.51</ele>
        <time>2013-09-15T10:17:26Z</time>
      </trkpt>
      <trkpt lat="47.431639060378075" lon="12.243237756192684">
        <ele>1209.48</ele>
        <time>2013-09-15T10:17:43Z</time>
      </trkpt>
      <trkpt lat="47.431644508615136" lon="12.243270194157958">
        <ele>1209.96</ele>
        <time>2013-09-15T10:18:04Z</time>
      </trkpt>
      <trkpt lat="47.431591534987092" lon="12.243260722607374">
        <ele>1210.9200000000001</ele>
        <time>2013-09-15T10:18:20Z</time>
      </trkpt>
      <trkpt lat="47.431505536660552" lon="12.24319115281105">
        <ele>1211.8800000000001</ele>
        <time>2013-09-15T10:18:38Z</time>
      </trkpt>
      <trkpt lat="47.431503357365727" lon="12.243270864710212">
        <ele>1212.8399999999999</ele>
        <time>2013-09-15T10:19:04Z</time>
      </trkpt>
      <trkpt lat="47.431458849459887" lon="12.243165923282504">
        <ele>1213.3199999999999</ele>
        <time>2013-09-15T10:19:37Z</time>
      </trkpt>
      <trkpt lat="47.43129531852901" lon="12.243048995733261">
        <ele>1215.72</ele>
        <time>2013-09-15T10:19:58Z</time>
      </trkpt>
      <trkpt lat="47.431154921650887" lon="12.24286132492125">
        <ele>1218.6099999999999</ele>
        <time>2013-09-15T10:20:18Z</time>
      </trkpt>
      <trkpt lat="47.431019805371761" lon="12.242832407355309">
        <ele>1220.05</ele>
        <time>2013-09-15T10:20:36Z</time>
      </trkpt>
      <trkpt lat="47.430876139551401" lon="12.242792593315244">
        <ele>1222.45</ele>
        <time>2013-09-15T10:20:55Z</time>
      </trkpt>
      <trkpt lat="47.430739849805832" lon="12.242765855044127">
        <ele>1224.3800000000001</ele>
        <time>2013-09-15T10:21:13Z</time>
      </trkpt>
      <trkpt lat="47.430709758773446" lon="12.242868198081851">
        <ele>1225.8199999999999</ele>
        <time>2013-09-15T10:21:30Z</time>
      </trkpt>
      <trkpt lat="47.430793577805161" lon="12.242927122861147">
        <ele>1228.7</ele>
        <time>2013-09-15T10:21:48Z</time>
      </trkpt>
      <trkpt lat="47.430852921679616" lon="12.243014881387353">
        <ele>1229.6600000000001</ele>
        <time>2013-09-15T10:22:07Z</time>
      </trkpt>
      <trkpt lat="47.430908493697643" lon="12.243098532781005">
        <ele>1230.6199999999999</ele>
        <time>2013-09-15T10:22:16Z</time>
      </trkpt>
      <trkpt lat="47.430995414033532" lon="12.243301961570978">
        <ele>1232.0699999999999</ele>
        <time>2013-09-15T10:22:32Z</time>
      </trkpt>
      <trkpt lat="47.431055763736367" lon="12.243495332077146">
        <ele>1233.03</ele>
        <time>2013-09-15T10:22:50Z</time>
      </trkpt>
      <trkpt lat="47.431108066812158" lon="12.243642853572965">
        <ele>1233.51</ele>
        <time>2013-09-15T10:23:04Z</time>
      </trkpt>
      <trkpt lat="47.430965909734368" lon="12.243594406172633">
        <ele>1235.9100000000001</ele>
        <time>2013-09-15T10:23:23Z</time>
      </trkpt>
      <trkpt lat="47.430894076824188" lon="12.243395838886499">
        <ele>1238.3199999999999</ele>
        <time>2013-09-15T10:23:41Z</time>
      </trkpt>
      <trkpt lat="47.430766420438886" lon="12.243288550525904">
        <ele>1240.72</ele>
        <time>2013-09-15T10:24:00Z</time>
      </trkpt>
      <trkpt lat="47.430773796513677" lon="12.243262315168977">
        <ele>1240.72</ele>
        <time>2013-09-15T10:24:27Z</time>
      </trkpt>
      <trkpt lat="47.430785950273275" lon="12.243275558575988">
        <ele>1240.72</ele>
        <time>2013-09-15T10:24:59Z</time>
      </trkpt>
      <trkpt lat="47.430730713531375" lon="12.243248820304871">
        <ele>1242.6400000000001</ele>
        <time>2013-09-15T10:25:21Z</time>
      </trkpt>
      <trkpt lat="47.430722331628203" lon="12.243290729820728">
        <ele>1243.5999999999999</ele>
        <time>2013-09-15T10:25:32Z</time>
      </trkpt>
      <trkpt lat="47.43073876015842" lon="12.243311433121562">
        <ele>1243.5999999999999</ele>
        <time>2013-09-15T10:25:34Z</time>
      </trkpt>
      <trkpt lat="47.43079056032002" lon="12.243416290730238">
        <ele>1245.04</ele>
        <time>2013-09-15T10:25:53Z</time>
      </trkpt>
      <trkpt lat="47.430852921679616" lon="12.243595914915204">
        <ele>1247.45</ele>
        <time>2013-09-15T10:26:13Z</time>
      </trkpt>
      <trkpt lat="47.430933052673936" lon="12.243778305128217">
        <ele>1250.3299999999999</ele>
        <time>2013-09-15T10:26:34Z</time>
      </trkpt>
      <trkpt lat="47.431159615516663" lon="12.244048872962594">
        <ele>1252.74</ele>
        <time>2013-09-15T10:26:54Z</time>
      </trkpt>
      <trkpt lat="47.431271346285939" lon="12.244212906807661">
        <ele>1255.1400000000001</ele>
        <time>2013-09-15T10:27:09Z</time>
      </trkpt>
      <trkpt lat="47.431248296052217" lon="12.244277698919177">
        <ele>1254.6600000000001</ele>
        <time>2013-09-15T10:27:25Z</time>
      </trkpt>
      <trkpt lat="47.431191131472588" lon="12.244254061952233">
        <ele>1255.6199999999999</ele>
        <time>2013-09-15T10:27:50Z</time>
      </trkpt>
      <trkpt lat="47.431132458150387" lon="12.244338467717171">
        <ele>1256.5799999999999</ele>
        <time>2013-09-15T10:28:10Z</time>
      </trkpt>
      <trkpt lat="47.431165231391788" lon="12.244447851553559">
        <ele>1257.54</ele>
        <time>2013-09-15T10:28:16Z</time>
      </trkpt>
      <trkpt lat="47.43133295327425" lon="12.244694530963898">
        <ele>1259.9400000000001</ele>
        <time>2013-09-15T10:28:35Z</time>
      </trkpt>
      <trkpt lat="47.431416185572743" lon="12.244871305301785">
        <ele>1261.8699999999999</ele>
        <time>2013-09-15T10:28:52Z</time>
      </trkpt>
      <trkpt lat="47.431434290483594" lon="12.245052857324481">
        <ele>1262.8299999999999</ele>
        <time>2013-09-15T10:29:06Z</time>
      </trkpt>
      <trkpt lat="47.431453568860888" lon="12.245093174278736">
        <ele>1262.3499999999999</ele>
        <time>2013-09-15T10:29:23Z</time>
      </trkpt>
      <trkpt lat="47.431436385959387" lon="12.245089402422309">
        <ele>1263.3099999999999</ele>
        <time>2013-09-15T10:29:48Z</time>
      </trkpt>
      <trkpt lat="47.43143261410296" lon="12.245090072974563">
        <ele>1263.79</ele>
        <time>2013-09-15T10:30:20Z</time>
      </trkpt>
      <trkpt lat="47.431433284655213" lon="12.245087642222643">
        <ele>1263.3099999999999</ele>
        <time>2013-09-15T10:30:48Z</time>
      </trkpt>
      <trkpt lat="47.431432195007801" lon="12.245087558403611">
        <ele>1263.3099999999999</ele>
        <time>2013-09-15T10:31:12Z</time>
      </trkpt>
      <trkpt lat="47.431408641859889" lon="12.245102478191257">
        <ele>1263.79</ele>
        <time>2013-09-15T10:31:27Z</time>
      </trkpt>
      <trkpt lat="47.431345358490944" lon="12.244949424639344">
        <ele>1265.71</ele>
        <time>2013-09-15T10:31:45Z</time>
      </trkpt>
      <trkpt lat="47.431282326579094" lon="12.244683634489775">
        <ele>1267.6400000000001</ele>
        <time>2013-09-15T10:32:03Z</time>
      </trkpt>
      <trkpt lat="47.431196998804808" lon="12.244489090517163">
        <ele>1270.52</ele>
        <time>2013-09-15T10:32:18Z</time>
      </trkpt>
      <trkpt lat="47.431068420410156" lon="12.244391441345215">
        <ele>1272.4400000000001</ele>
        <time>2013-09-15T10:32:34Z</time>
      </trkpt>
      <trkpt lat="47.430998682975769" lon="12.244383310899138">
        <ele>1274.8499999999999</ele>
        <time>2013-09-15T10:32:48Z</time>
      </trkpt>
      <trkpt lat="47.431004634127021" lon="12.244409210979939">
        <ele>1274.8499999999999</ele>
        <time>2013-09-15T10:32:51Z</time>
      </trkpt>
      <trkpt lat="47.431083507835865" lon="12.244630409404635">
        <ele>1276.77</ele>
        <time>2013-09-15T10:33:08Z</time>
      </trkpt>
      <trkpt lat="47.431109324097633" lon="12.244821935892105">
        <ele>1278.21</ele>
        <time>2013-09-15T10:33:24Z</time>
      </trkpt>
      <trkpt lat="47.431112173944712" lon="12.244952525943518">
        <ele>1279.1700000000001</ele>
        <time>2013-09-15T10:33:43Z</time>
      </trkpt>
      <trkpt lat="47.431136313825846" lon="12.245055874809623">
        <ele>1280.1300000000001</ele>
        <time>2013-09-15T10:33:54Z</time>
      </trkpt>
      <trkpt lat="47.431110413745046" lon="12.245235834270716">
        <ele>1281.5699999999999</ele>
        <time>2013-09-15T10:34:13Z</time>
      </trkpt>
      <trkpt lat="47.431118376553059" lon="12.245344463735819">
        <ele>1282.0599999999999</ele>
        <time>2013-09-15T10:34:30Z</time>
      </trkpt>
      <trkpt lat="47.431104881688952" lon="12.245384864509106">
        <ele>1283.5</ele>
        <time>2013-09-15T10:34:34Z</time>
      </trkpt>
      <trkpt lat="47.4310368206352" lon="12.245466252788901">
        <ele>1284.46</ele>
        <time>2013-09-15T10:34:43Z</time>
      </trkpt>
      <trkpt lat="47.430949984118342" lon="12.245435994118452">
        <ele>1285.9000000000001</ele>
        <time>2013-09-15T10:34:57Z</time>
      </trkpt>
      <trkpt lat="47.430960796773434" lon="12.245266763493419">
        <ele>1287.3399999999999</ele>
        <time>2013-09-15T10:35:12Z</time>
      </trkpt>
      <trkpt lat="47.430892903357744" lon="12.24507481791079">
        <ele>1289.75</ele>
        <time>2013-09-15T10:35:28Z</time>
      </trkpt>
      <trkpt lat="47.430802881717682" lon="12.244911873713136">
        <ele>1291.6700000000001</ele>
        <time>2013-09-15T10:35:42Z</time>
      </trkpt>
      <trkpt lat="47.430729372426867" lon="12.244817325845361">
        <ele>1293.1099999999999</ele>
        <time>2013-09-15T10:36:02Z</time>
      </trkpt>
      <trkpt lat="47.430665334686637" lon="12.24475328810513">
        <ele>1294.0699999999999</ele>
        <time>2013-09-15T10:36:17Z</time>
      </trkpt>
      <trkpt lat="47.430651672184467" lon="12.244743229821324">
        <ele>1294.55</ele>
        <time>2013-09-15T10:36:19Z</time>
      </trkpt>
      <trkpt lat="47.430538851767778" lon="12.24462135694921">
        <ele>1296.96</ele>
        <time>2013-09-15T10:36:33Z</time>
      </trkpt>
      <trkpt lat="47.430425025522709" lon="12.244475344195962">
        <ele>1298.4000000000001</ele>
        <time>2013-09-15T10:36:48Z</time>
      </trkpt>
      <trkpt lat="47.43030583485961" lon="12.244343999773264">
        <ele>1300.8</ele>
        <time>2013-09-15T10:37:04Z</time>
      </trkpt>
      <trkpt lat="47.430260740220547" lon="12.244299240410328">
        <ele>1301.28</ele>
        <time>2013-09-15T10:37:10Z</time>
      </trkpt>
      <trkpt lat="47.430135849863291" lon="12.244194801896811">
        <ele>1303.2</ele>
        <time>2013-09-15T10:37:25Z</time>
      </trkpt>
      <trkpt lat="47.430052869021893" lon="12.244102517142892">
        <ele>1305.1300000000001</ele>
        <time>2013-09-15T10:37:42Z</time>
      </trkpt>
      <trkpt lat="47.429947173222899" lon="12.244032192975283">
        <ele>1306.5699999999999</ele>
        <time>2013-09-15T10:37:54Z</time>
      </trkpt>
      <trkpt lat="47.429808620363474" lon="12.243924820795655">
        <ele>1308.49</ele>
        <time>2013-09-15T10:38:12Z</time>
      </trkpt>
      <trkpt lat="47.429696721956134" lon="12.243836224079132">
        <ele>1310.9000000000001</ele>
        <time>2013-09-15T10:38:29Z</time>
      </trkpt>
      <trkpt lat="47.429678114131093" lon="12.243964215740561">
        <ele>1312.3399999999999</ele>
        <time>2013-09-15T10:38:46Z</time>
      </trkpt>
      <trkpt lat="47.429741229861975" lon="12.244006125256419">
        <ele>1313.78</ele>
        <time>2013-09-15T10:38:53Z</time>
      </trkpt>
      <trkpt lat="47.429825216531754" lon="12.244118107482791">
        <ele>1315.22</ele>
        <time>2013-09-15T10:39:05Z</time>
      </trkpt>
      <trkpt lat="47.429900569841266" lon="12.244322877377272">
        <ele>1317.1400000000001</ele>
        <time>2013-09-15T10:39:24Z</time>
      </trkpt>
      <trkpt lat="47.429907526820898" lon="12.244344921782613">
        <ele>1317.6199999999999</ele>
        <time>2013-09-15T10:39:26Z</time>
      </trkpt>
      <trkpt lat="47.429914064705372" lon="12.244401751086116">
        <ele>1318.0999999999999</ele>
        <time>2013-09-15T10:39:31Z</time>
      </trkpt>
      <trkpt lat="47.42995941080153" lon="12.244586320593953">
        <ele>1320.03</ele>
        <time>2013-09-15T10:39:47Z</time>
      </trkpt>
      <trkpt lat="47.430005092173815" lon="12.244772482663393">
        <ele>1321.47</ele>
        <time>2013-09-15T10:40:03Z</time>
      </trkpt>
      <trkpt lat="47.43003711104393" lon="12.244968535378575">
        <ele>1323.3900000000001</ele>
        <time>2013-09-15T10:40:17Z</time>
      </trkpt>
      <trkpt lat="47.430064855143428" lon="12.245063502341509">
        <ele>1324.3499999999999</ele>
        <time>2013-09-15T10:40:26Z</time>
      </trkpt>
      <trkpt lat="47.430073656141758" lon="12.245165426284075">
        <ele>1324.8299999999999</ele>
        <time>2013-09-15T10:40:32Z</time>
      </trkpt>
      <trkpt lat="47.43010064586997" lon="12.245357455685735">
        <ele>1326.28</ele>
        <time>2013-09-15T10:40:48Z</time>
      </trkpt>
      <trkpt lat="47.4300835467875" lon="12.245518639683723">
        <ele>1328.2</ele>
        <time>2013-09-15T10:41:05Z</time>
      </trkpt>
      <trkpt lat="47.430048510432243" lon="12.245579827576876">
        <ele>1329.1600000000001</ele>
        <time>2013-09-15T10:41:24Z</time>
      </trkpt>
      <trkpt lat="47.4300248734653" lon="12.24564403295517">
        <ele>1329.6400000000001</ele>
        <time>2013-09-15T10:41:29Z</time>
      </trkpt>
      <trkpt lat="47.430035769939423" lon="12.245751405134797">
        <ele>1331.0799999999999</ele>
        <time>2013-09-15T10:41:37Z</time>
      </trkpt>
      <trkpt lat="47.430005427449942" lon="12.245913846418262">
        <ele>1333.01</ele>
        <time>2013-09-15T10:41:50Z</time>
      </trkpt>
      <trkpt lat="47.429959829896688" lon="12.246121969074011">
        <ele>1333.97</ele>
        <time>2013-09-15T10:42:03Z</time>
      </trkpt>
      <trkpt lat="47.429906772449613" lon="12.246200423687696">
        <ele>1335.4100000000001</ele>
        <time>2013-09-15T10:42:13Z</time>
      </trkpt>
      <trkpt lat="47.42983334697783" lon="12.24638725630939">
        <ele>1337.3299999999999</ele>
        <time>2013-09-15T10:42:29Z</time>
      </trkpt>
      <trkpt lat="47.429834436625242" lon="12.246403433382511">
        <ele>1338.77</ele>
        <time>2013-09-15T10:42:47Z</time>
      </trkpt>
      <trkpt lat="47.429752126336098" lon="12.246650280430913">
        <ele>1340.7</ele>
        <time>2013-09-15T10:43:06Z</time>
      </trkpt>
      <trkpt lat="47.429700409993529" lon="12.24675765261054">
        <ele>1342.1400000000001</ele>
        <time>2013-09-15T10:43:25Z</time>
      </trkpt>
      <trkpt lat="47.429620698094368" lon="12.247051522135735">
        <ele>1343.5799999999999</ele>
        <time>2013-09-15T10:43:42Z</time>
      </trkpt>
      <trkpt lat="47.429594211280346" lon="12.2471690364182">
        <ele>1345.02</ele>
        <time>2013-09-15T10:43:54Z</time>
      </trkpt>
      <trkpt lat="47.429544925689697" lon="12.247195523232222">
        <ele>1345.02</ele>
        <time>2013-09-15T10:44:12Z</time>
      </trkpt>
      <trkpt lat="47.429476529359818" lon="12.247326951473951">
        <ele>1345.98</ele>
        <time>2013-09-15T10:44:30Z</time>
      </trkpt>
      <trkpt lat="47.429433614015579" lon="12.247443543747067">
        <ele>1348.3900000000001</ele>
        <time>2013-09-15T10:44:48Z</time>
      </trkpt>
      <trkpt lat="47.429430680349469" lon="12.24744999781251">
        <ele>1344.54</ele>
        <time>2013-09-15T10:44:51Z</time>
      </trkpt>
      <trkpt lat="47.429428836330771" lon="12.247453350573778">
        <ele>1347.4300000000001</ele>
        <time>2013-09-15T10:44:53Z</time>
      </trkpt>
      <trkpt lat="47.42942925542593" lon="12.247452596202493">
        <ele>1347.4300000000001</ele>
        <time>2013-09-15T10:44:54Z</time>
      </trkpt>
      <trkpt lat="47.429440822452307" lon="12.247434742748737">
        <ele>1348.3900000000001</ele>
        <time>2013-09-15T10:45:27Z</time>
      </trkpt>
      <trkpt lat="47.429397404193878" lon="12.247477071359754">
        <ele>1348.8699999999999</ele>
        <time>2013-09-15T10:45:46Z</time>
      </trkpt>
      <trkpt lat="47.429249044507742" lon="12.2475506644696">
        <ele>1350.79</ele>
        <time>2013-09-15T10:46:08Z</time>
      </trkpt>
      <trkpt lat="47.429025080054998" lon="12.247607242316008">
        <ele>1353.1900000000001</ele>
        <time>2013-09-15T10:46:30Z</time>
      </trkpt>
      <trkpt lat="47.428935812786222" lon="12.247607242316008">
        <ele>1353.1900000000001</ele>
        <time>2013-09-15T10:46:49Z</time>
      </trkpt>
      <trkpt lat="47.428791392594576" lon="12.24766356870532">
        <ele>1356.0799999999999</ele>
        <time>2013-09-15T10:47:09Z</time>
      </trkpt>
      <trkpt lat="47.42867236956954" lon="12.247635237872601">
        <ele>1357.52</ele>
        <time>2013-09-15T10:47:28Z</time>
      </trkpt>
      <trkpt lat="47.428790973499417" lon="12.247592657804489">
        <ele>1359.9200000000001</ele>
        <time>2013-09-15T10:47:51Z</time>
      </trkpt>
      <trkpt lat="47.428948553279042" lon="12.247455613687634">
        <ele>1360.8800000000001</ele>
        <time>2013-09-15T10:48:10Z</time>
      </trkpt>
      <trkpt lat="47.429101942107081" lon="12.247269283980131">
        <ele>1362.8099999999999</ele>
        <time>2013-09-15T10:48:30Z</time>
      </trkpt>
      <trkpt lat="47.428952157497406" lon="12.247331980615854">
        <ele>1364.25</ele>
        <time>2013-09-15T10:48:47Z</time>
      </trkpt>
      <trkpt lat="47.428800109773874" lon="12.247338769957423">
        <ele>1365.6900000000001</ele>
        <time>2013-09-15T10:49:02Z</time>
      </trkpt>
      <trkpt lat="47.428683768957853" lon="12.247385876253247">
        <ele>1367.6099999999999</ele>
        <time>2013-09-15T10:49:20Z</time>
      </trkpt>
      <trkpt lat="47.428523674607277" lon="12.247431306168437">
        <ele>1369.05</ele>
        <time>2013-09-15T10:49:40Z</time>
      </trkpt>
      <trkpt lat="47.428449494764209" lon="12.247395683079958">
        <ele>1370.98</ele>
        <time>2013-09-15T10:49:57Z</time>
      </trkpt>
      <trkpt lat="47.428374392911792" lon="12.247326532378793">
        <ele>1371.9400000000001</ele>
        <time>2013-09-15T10:50:14Z</time>
      </trkpt>
      <trkpt lat="47.428172891959548" lon="12.247287975624204">
        <ele>1374.3399999999999</ele>
        <time>2013-09-15T10:50:33Z</time>
      </trkpt>
      <trkpt lat="47.428051941096783" lon="12.247209269553423">
        <ele>1376.75</ele>
        <time>2013-09-15T10:50:50Z</time>
      </trkpt>
      <trkpt lat="47.427977342158556" lon="12.247196948155761">
        <ele>1377.23</ele>
        <time>2013-09-15T10:51:07Z</time>
      </trkpt>
      <trkpt lat="47.427799813449383" lon="12.247169623151422">
        <ele>1379.6300000000001</ele>
        <time>2013-09-15T10:51:28Z</time>
      </trkpt>
      <trkpt lat="47.427597725763917" lon="12.247132826596498">
        <ele>1382.03</ele>
        <time>2013-09-15T10:51:48Z</time>
      </trkpt>
      <trkpt lat="47.427436374127865" lon="12.24718471057713">
        <ele>1383.96</ele>
        <time>2013-09-15T10:52:06Z</time>
      </trkpt>
      <trkpt lat="47.427406283095479" lon="12.24719594232738">
        <ele>1384.9200000000001</ele>
        <time>2013-09-15T10:52:10Z</time>
      </trkpt>
      <trkpt lat="47.427286505699158" lon="12.24720474332571">
        <ele>1385.8800000000001</ele>
        <time>2013-09-15T10:52:25Z</time>
      </trkpt>
      <trkpt lat="47.427150383591652" lon="12.247287556529045">
        <ele>1387.8</ele>
        <time>2013-09-15T10:52:41Z</time>
      </trkpt>
      <trkpt lat="47.427002275362611" lon="12.247366346418858">
        <ele>1389.24</ele>
        <time>2013-09-15T10:52:57Z</time>
      </trkpt>
      <trkpt lat="47.426891885697842" lon="12.247410099953413">
        <ele>1390.6800000000001</ele>
        <time>2013-09-15T10:53:11Z</time>
      </trkpt>
      <trkpt lat="47.42674813605845" lon="12.247471287846565">
        <ele>1393.0899999999999</ele>
        <time>2013-09-15T10:53:28Z</time>
      </trkpt>
      <trkpt lat="47.426679320633411" lon="12.247555693611503">
        <ele>1394.05</ele>
        <time>2013-09-15T10:53:38Z</time>
      </trkpt>
      <trkpt lat="47.426597010344267" lon="12.247746465727687">
        <ele>1395.97</ele>
        <time>2013-09-15T10:53:52Z</time>
      </trkpt>
      <trkpt lat="47.426522746682167" lon="12.24792935885489">
        <ele>1396.9300000000001</ele>
        <time>2013-09-15T10:54:09Z</time>
      </trkpt>
      <trkpt lat="47.42643247358501" lon="12.248050728812814">
        <ele>1399.3399999999999</ele>
        <time>2013-09-15T10:54:26Z</time>
      </trkpt>
      <trkpt lat="47.426398443058133" lon="12.247980823740363">
        <ele>1400.3</ele>
        <time>2013-09-15T10:54:44Z</time>
      </trkpt>
      <trkpt lat="47.42637287825346" lon="12.247798936441541">
        <ele>1401.26</ele>
        <time>2013-09-15T10:54:59Z</time>
      </trkpt>
      <trkpt lat="47.426426103338599" lon="12.247598106041551">
        <ele>1403.1800000000001</ele>
        <time>2013-09-15T10:55:16Z</time>
      </trkpt>
      <trkpt lat="47.426449321210384" lon="12.247421415522695">
        <ele>1404.6199999999999</ele>
        <time>2013-09-15T10:55:32Z</time>
      </trkpt>
      <trkpt lat="47.426512269303203" lon="12.247283281758428">
        <ele>1406.55</ele>
        <time>2013-09-15T10:55:47Z</time>
      </trkpt>
      <trkpt lat="47.426574714481831" lon="12.247127462178469">
        <ele>1408.47</ele>
        <time>2013-09-15T10:56:05Z</time>
      </trkpt>
      <trkpt lat="47.426637159660459" lon="12.246973738074303">
        <ele>1410.8699999999999</ele>
        <time>2013-09-15T10:56:27Z</time>
      </trkpt>
      <trkpt lat="47.426741849631071" lon="12.246844656765461">
        <ele>1412.79</ele>
        <time>2013-09-15T10:56:44Z</time>
      </trkpt>
      <trkpt lat="47.426844527944922" lon="12.246728735044599">
        <ele>1415.2</ele>
        <time>2013-09-15T10:57:01Z</time>
      </trkpt>
      <trkpt lat="47.426999676972628" lon="12.246530251577497">
        <ele>1417.5999999999999</ele>
        <time>2013-09-15T10:57:26Z</time>
      </trkpt>
      <trkpt lat="47.427180306985974" lon="12.246422879397869">
        <ele>1420.49</ele>
        <time>2013-09-15T10:57:49Z</time>
      </trkpt>
      <trkpt lat="47.427338054403663" lon="12.246246691793203">
        <ele>1422.8900000000001</ele>
        <time>2013-09-15T10:58:11Z</time>
      </trkpt>
      <trkpt lat="47.427443079650402" lon="12.246104283258319">
        <ele>1425.29</ele>
        <time>2013-09-15T10:58:28Z</time>
      </trkpt>
      <trkpt lat="47.427559336647391" lon="12.246035048738122">
        <ele>1427.21</ele>
        <time>2013-09-15T10:58:46Z</time>
      </trkpt>
      <trkpt lat="47.427642485126853" lon="12.24594066850841">
        <ele>1428.6600000000001</ele>
        <time>2013-09-15T10:59:02Z</time>
      </trkpt>
      <trkpt lat="47.427719933912158" lon="12.245791470631957">
        <ele>1430.5799999999999</ele>
        <time>2013-09-15T10:59:18Z</time>
      </trkpt>
      <trkpt lat="47.427835268899798" lon="12.245680829510093">
        <ele>1432.02</ele>
        <time>2013-09-15T10:59:37Z</time>
      </trkpt>
      <trkpt lat="47.42801807820797" lon="12.245679991319776">
        <ele>1431.54</ele>
        <time>2013-09-15T10:59:55Z</time>
      </trkpt>
      <trkpt lat="47.427937025204301" lon="12.245534146204591">
        <ele>1432.5</ele>
        <time>2013-09-15T11:00:15Z</time>
      </trkpt>
      <trkpt lat="47.427983544766903" lon="12.2454490698874">
        <ele>1434.4200000000001</ele>
        <time>2013-09-15T11:00:34Z</time>
      </trkpt>
      <trkpt lat="47.427975330501795" lon="12.245304314419627">
        <ele>1436.8299999999999</ele>
        <time>2013-09-15T11:00:50Z</time>
      </trkpt>
      <trkpt lat="47.427962673828006" lon="12.245278833433986">
        <ele>1437.79</ele>
        <time>2013-09-15T11:01:08Z</time>
      </trkpt>
      <trkpt lat="47.428002068772912" lon="12.245255447924137">
        <ele>1437.3099999999999</ele>
        <time>2013-09-15T11:01:33Z</time>
      </trkpt>
      <trkpt lat="47.428052611649036" lon="12.245231308043003">
        <ele>1437.3099999999999</ele>
        <time>2013-09-15T11:01:54Z</time>
      </trkpt>
      <trkpt lat="47.428015815094113" lon="12.245247317478061">
        <ele>1437.3099999999999</ele>
        <time>2013-09-15T11:02:12Z</time>
      </trkpt>
      <trkpt lat="47.428017659112811" lon="12.245252095162868">
        <ele>1437.3099999999999</ele>
        <time>2013-09-15T11:02:41Z</time>
      </trkpt>
      <trkpt lat="47.428011707961559" lon="12.245249999687076">
        <ele>1436.8299999999999</ele>
        <time>2013-09-15T11:02:56Z</time>
      </trkpt>
      <trkpt lat="47.428006511181593" lon="12.245254442095757">
        <ele>1437.79</ele>
        <time>2013-09-15T11:03:23Z</time>
      </trkpt>
      <trkpt lat="47.428015898913145" lon="12.245249664410949">
        <ele>1437.79</ele>
        <time>2013-09-15T11:03:52Z</time>
      </trkpt>
      <trkpt lat="47.428021347150207" lon="12.245244719088078">
        <ele>1438.27</ele>
        <time>2013-09-15T11:04:27Z</time>
      </trkpt>
      <trkpt lat="47.428021850064397" lon="12.245244719088078">
        <ele>1438.75</ele>
        <time>2013-09-15T11:04:57Z</time>
      </trkpt>
      <trkpt lat="47.428019754588604" lon="12.245250670239329">
        <ele>1435.3900000000001</ele>
        <time>2013-09-15T11:05:31Z</time>
      </trkpt>
      <trkpt lat="47.428019838407636" lon="12.245250586420298">
        <ele>1439.71</ele>
        <time>2013-09-15T11:05:32Z</time>
      </trkpt>
      <trkpt lat="47.428021933883429" lon="12.245247988030314">
        <ele>1438.27</ele>
        <time>2013-09-15T11:05:48Z</time>
      </trkpt>
      <trkpt lat="47.42802394554019" lon="12.245247736573219">
        <ele>1437.79</ele>
        <time>2013-09-15T11:06:11Z</time>
      </trkpt>
      <trkpt lat="47.428021347150207" lon="12.245246060192585">
        <ele>1438.75</ele>
        <time>2013-09-15T11:06:28Z</time>
      </trkpt>
      <trkpt lat="47.42801908403635" lon="12.245251256972551">
        <ele>1438.27</ele>
        <time>2013-09-15T11:07:01Z</time>
      </trkpt>
      <trkpt lat="47.428016318008304" lon="12.245253352448344">
        <ele>1439.23</ele>
        <time>2013-09-15T11:07:27Z</time>
      </trkpt>
      <trkpt lat="47.428014306351542" lon="12.245252933353186">
        <ele>1438.75</ele>
        <time>2013-09-15T11:07:59Z</time>
      </trkpt>
      <trkpt lat="47.428012294694781" lon="12.245247401297092">
        <ele>1439.71</ele>
        <time>2013-09-15T11:08:29Z</time>
      </trkpt>
      <trkpt lat="47.428012546151876" lon="12.245241114869714">
        <ele>1439.71</ele>
        <time>2013-09-15T11:08:51Z</time>
      </trkpt>
      <trkpt lat="47.428020173683763" lon="12.245225692167878">
        <ele>1439.71</ele>
        <time>2013-09-15T11:09:18Z</time>
      </trkpt>
      <trkpt lat="47.428007768467069" lon="12.245233403518796">
        <ele>1439.71</ele>
        <time>2013-09-15T11:09:38Z</time>
      </trkpt>
      <trkpt lat="47.428003996610641" lon="12.245234828442335">
        <ele>1439.71</ele>
        <time>2013-09-15T11:10:05Z</time>
      </trkpt>
      <trkpt lat="47.42800684645772" lon="12.245242120698094">
        <ele>1439.71</ele>
        <time>2013-09-15T11:10:29Z</time>
      </trkpt>
      <trkpt lat="47.428009863942862" lon="12.24523994140327">
        <ele>1439.71</ele>
        <time>2013-09-15T11:10:51Z</time>
      </trkpt>
      <trkpt lat="47.42801321670413" lon="12.245237678289413">
        <ele>1440.1900000000001</ele>
        <time>2013-09-15T11:11:09Z</time>
      </trkpt>
      <trkpt lat="47.428013384342194" lon="12.245238265022635">
        <ele>1440.6700000000001</ele>
        <time>2013-09-15T11:11:30Z</time>
      </trkpt>
      <trkpt lat="47.428009528666735" lon="12.245249496772885">
        <ele>1440.6700000000001</ele>
        <time>2013-09-15T11:11:51Z</time>
      </trkpt>
      <trkpt lat="47.427939204499125" lon="12.245221333578229">
        <ele>1443.0799999999999</ele>
        <time>2013-09-15T11:12:11Z</time>
      </trkpt>
      <trkpt lat="47.427795203402638" lon="12.245152853429317">
        <ele>1446.4400000000001</ele>
        <time>2013-09-15T11:12:31Z</time>
      </trkpt>
      <trkpt lat="47.427746336907148" lon="12.245123600587249">
        <ele>1449.3199999999999</ele>
        <time>2013-09-15T11:12:46Z</time>
      </trkpt>
      <trkpt lat="47.427651202306151" lon="12.245069788768888">
        <ele>1451.73</ele>
        <time>2013-09-15T11:13:05Z</time>
      </trkpt>
      <trkpt lat="47.427631504833698" lon="12.245059395208955">
        <ele>1454.1300000000001</ele>
        <time>2013-09-15T11:13:22Z</time>
      </trkpt>
      <trkpt lat="47.427592193707824" lon="12.244954202324152">
        <ele>1455.0899999999999</ele>
        <time>2013-09-15T11:13:38Z</time>
      </trkpt>
      <trkpt lat="47.427549362182617" lon="12.244895780459046">
        <ele>1456.05</ele>
        <time>2013-09-15T11:13:54Z</time>
      </trkpt>
      <trkpt lat="47.427495550364256" lon="12.244787653908134">
        <ele>1457.02</ele>
        <time>2013-09-15T11:14:08Z</time>
      </trkpt>
      <trkpt lat="47.427439307793975" lon="12.244679359719157">
        <ele>1458.9400000000001</ele>
        <time>2013-09-15T11:14:24Z</time>
      </trkpt>
      <trkpt lat="47.427402762696147" lon="12.244607526808977">
        <ele>1461.3399999999999</ele>
        <time>2013-09-15T11:14:42Z</time>
      </trkpt>
      <trkpt lat="47.42739706300199" lon="12.244569221511483">
        <ele>1462.78</ele>
        <time>2013-09-15T11:15:03Z</time>
      </trkpt>
      <trkpt lat="47.427382478490472" lon="12.24454122595489">
        <ele>1465.1900000000001</ele>
        <time>2013-09-15T11:15:24Z</time>
      </trkpt>
      <trkpt lat="47.427330259233713" lon="12.24440686404705">
        <ele>1465.6700000000001</ele>
        <time>2013-09-15T11:15:45Z</time>
      </trkpt>
      <trkpt lat="47.427155915647745" lon="12.244023727253079">
        <ele>1466.6300000000001</ele>
        <time>2013-09-15T11:16:04Z</time>
      </trkpt>
      <trkpt lat="47.427003281190991" lon="12.243917193263769">
        <ele>1469.51</ele>
        <time>2013-09-15T11:16:28Z</time>
      </trkpt>
      <trkpt lat="47.426991881802678" lon="12.243926580995321">
        <ele>1472.4000000000001</ele>
        <time>2013-09-15T11:16:47Z</time>
      </trkpt>
      <trkpt lat="47.426978722214699" lon="12.243981482461095">
        <ele>1474.8</ele>
        <time>2013-09-15T11:17:09Z</time>
      </trkpt>
      <trkpt lat="47.426916779950261" lon="12.244071587920189">
        <ele>1477.2</ele>
        <time>2013-09-15T11:17:27Z</time>
      </trkpt>
      <trkpt lat="47.426914600655437" lon="12.244073348119855">
        <ele>1478.1600000000001</ele>
        <time>2013-09-15T11:17:41Z</time>
      </trkpt>
      <trkpt lat="47.42688694037497" lon="12.244112072512507">
        <ele>1481.05</ele>
        <time>2013-09-15T11:17:58Z</time>
      </trkpt>
      <trkpt lat="47.426804713904858" lon="12.244304521009326">
        <ele>1484.4100000000001</ele>
        <time>2013-09-15T11:18:17Z</time>
      </trkpt>
      <trkpt lat="47.426769761368632" lon="12.244215337559581">
        <ele>1484.8900000000001</ele>
        <time>2013-09-15T11:18:38Z</time>
      </trkpt>
      <trkpt lat="47.426680494099855" lon="12.244215924292803">
        <ele>1487.3</ele>
        <time>2013-09-15T11:19:00Z</time>
      </trkpt>
      <trkpt lat="47.426589550450444" lon="12.244241824373603">
        <ele>1489.7</ele>
        <time>2013-09-15T11:19:19Z</time>
      </trkpt>
      <trkpt lat="47.426541773602366" lon="12.244196310639381">
        <ele>1492.0999999999999</ele>
        <time>2013-09-15T11:19:38Z</time>
      </trkpt>
      <trkpt lat="47.42647404782474" lon="12.244165800511837">
        <ele>1492.0999999999999</ele>
        <time>2013-09-15T11:19:55Z</time>
      </trkpt>
      <trkpt lat="47.42646474391222" lon="12.244161274284124">
        <ele>1493.55</ele>
        <time>2013-09-15T11:20:22Z</time>
      </trkpt>
      <trkpt lat="47.426452590152621" lon="12.244114251807332">
        <ele>1495.95</ele>
        <time>2013-09-15T11:20:42Z</time>
      </trkpt>
      <trkpt lat="47.42640464566648" lon="12.244168566539884">
        <ele>1498.3499999999999</ele>
        <time>2013-09-15T11:20:59Z</time>
      </trkpt>
      <trkpt lat="47.426287969574332" lon="12.244239980354905">
        <ele>1500.27</ele>
        <time>2013-09-15T11:21:17Z</time>
      </trkpt>
      <trkpt lat="47.426214376464486" lon="12.244326565414667">
        <ele>1502.6800000000001</ele>
        <time>2013-09-15T11:21:34Z</time>
      </trkpt>
      <trkpt lat="47.426160480827093" lon="12.244381885975599">
        <ele>1502.6800000000001</ele>
        <time>2013-09-15T11:21:51Z</time>
      </trkpt>
      <trkpt lat="47.426170874387026" lon="12.244365373626351">
        <ele>1503.1600000000001</ele>
        <time>2013-09-15T11:22:17Z</time>
      </trkpt>
      <trkpt lat="47.426173891872168" lon="12.244333019480109">
        <ele>1506.04</ele>
        <time>2013-09-15T11:22:34Z</time>
      </trkpt>
      <trkpt lat="47.426179088652134" lon="12.244301754981279">
        <ele>1509.4100000000001</ele>
        <time>2013-09-15T11:22:50Z</time>
      </trkpt>
      <trkpt lat="47.42610557936132" lon="12.244378281757236">
        <ele>1511.3299999999999</ele>
        <time>2013-09-15T11:23:10Z</time>
      </trkpt>
      <trkpt lat="47.425987897440791" lon="12.244447181001306">
        <ele>1513.25</ele>
        <time>2013-09-15T11:23:28Z</time>
      </trkpt>
      <trkpt lat="47.425983706489205" lon="12.244416000321507">
        <ele>1515.6600000000001</ele>
        <time>2013-09-15T11:23:47Z</time>
      </trkpt>
      <trkpt lat="47.425965769216418" lon="12.244384316727519">
        <ele>1515.6600000000001</ele>
        <time>2013-09-15T11:24:06Z</time>
      </trkpt>
      <trkpt lat="47.425937773659825" lon="12.244363110512495">
        <ele>1515.6600000000001</ele>
        <time>2013-09-15T11:24:27Z</time>
      </trkpt>
      <trkpt lat="47.425935678184032" lon="12.244360847398639">
        <ele>1518.0599999999999</ele>
        <time>2013-09-15T11:24:51Z</time>
      </trkpt>
      <trkpt lat="47.425904581323266" lon="12.244345592334867">
        <ele>1520.9400000000001</ele>
        <time>2013-09-15T11:25:05Z</time>
      </trkpt>
      <trkpt lat="47.425872394815087" lon="12.244375683367252">
        <ele>1522.3900000000001</ele>
        <time>2013-09-15T11:25:30Z</time>
      </trkpt>
      <trkpt lat="47.425806093961" lon="12.244307957589626">
        <ele>1524.3099999999999</ele>
        <time>2013-09-15T11:25:47Z</time>
      </trkpt>
      <trkpt lat="47.425755383446813" lon="12.244323715567589">
        <ele>1525.27</ele>
        <time>2013-09-15T11:26:03Z</time>
      </trkpt>
      <trkpt lat="47.425674078986049" lon="12.24434919655323">
        <ele>1527.6700000000001</ele>
        <time>2013-09-15T11:26:22Z</time>
      </trkpt>
      <trkpt lat="47.425659829750657" lon="12.244339725002646">
        <ele>1531.04</ele>
        <time>2013-09-15T11:26:41Z</time>
      </trkpt>
      <trkpt lat="47.425606353208423" lon="12.244324553757906">
        <ele>1531.52</ele>
        <time>2013-09-15T11:26:59Z</time>
      </trkpt>
      <trkpt lat="47.425522031262517" lon="12.244333690032363">
        <ele>1533.9200000000001</ele>
        <time>2013-09-15T11:27:22Z</time>
      </trkpt>
      <trkpt lat="47.425438212230802" lon="12.244380209594965">
        <ele>1535.8399999999999</ele>
        <time>2013-09-15T11:27:39Z</time>
      </trkpt>
      <trkpt lat="47.425364032387733" lon="12.244397141039371">
        <ele>1538.25</ele>
        <time>2013-09-15T11:27:56Z</time>
      </trkpt>
      <trkpt lat="47.425335450097919" lon="12.244420275092125">
        <ele>1539.6900000000001</ele>
        <time>2013-09-15T11:28:16Z</time>
      </trkpt>
      <trkpt lat="47.425244674086571" lon="12.244354644790292">
        <ele>1542.5699999999999</ele>
        <time>2013-09-15T11:28:35Z</time>
      </trkpt>
      <trkpt lat="47.425239393487573" lon="12.244342071935534">
        <ele>1544.5</ele>
        <time>2013-09-15T11:28:51Z</time>
      </trkpt>
      <trkpt lat="47.425167812034488" lon="12.24431499838829">
        <ele>1547.8599999999999</ele>
        <time>2013-09-15T11:29:11Z</time>
      </trkpt>
      <trkpt lat="47.425108049064875" lon="12.244276944547892">
        <ele>1549.3</ele>
        <time>2013-09-15T11:29:28Z</time>
      </trkpt>
      <trkpt lat="47.425064966082573" lon="12.244243919849396">
        <ele>1551.22</ele>
        <time>2013-09-15T11:29:48Z</time>
      </trkpt>
      <trkpt lat="47.425004364922643" lon="12.244275603443384">
        <ele>1554.5899999999999</ele>
        <time>2013-09-15T11:30:07Z</time>
      </trkpt>
      <trkpt lat="47.424995144829154" lon="12.244338802993298">
        <ele>1555.55</ele>
        <time>2013-09-15T11:30:30Z</time>
      </trkpt>
      <trkpt lat="47.424966059625149" lon="12.244313405826688">
        <ele>1558.4300000000001</ele>
        <time>2013-09-15T11:30:48Z</time>
      </trkpt>
      <trkpt lat="47.424944853410125" lon="12.244314076378942">
        <ele>1560.8399999999999</ele>
        <time>2013-09-15T11:31:05Z</time>
      </trkpt>
      <trkpt lat="47.424889700487256" lon="12.244314830750227">
        <ele>1563.24</ele>
        <time>2013-09-15T11:31:21Z</time>
      </trkpt>
      <trkpt lat="47.42487084120512" lon="12.244318602606654">
        <ele>1563.24</ele>
        <time>2013-09-15T11:31:43Z</time>
      </trkpt>
      <trkpt lat="47.424836475402117" lon="12.244314579293132">
        <ele>1563.72</ele>
        <time>2013-09-15T11:32:12Z</time>
      </trkpt>
      <trkpt lat="47.42483421228826" lon="12.244303850457072">
        <ele>1563.72</ele>
        <time>2013-09-15T11:32:44Z</time>
      </trkpt>
      <trkpt lat="47.424814347177744" lon="12.244316507130861">
        <ele>1565.1600000000001</ele>
        <time>2013-09-15T11:33:03Z</time>
      </trkpt>
      <trkpt lat="47.424746453762054" lon="12.244301252067089">
        <ele>1568.05</ele>
        <time>2013-09-15T11:33:17Z</time>
      </trkpt>
      <trkpt lat="47.424677470698953" lon="12.244296725839376">
        <ele>1569.49</ele>
        <time>2013-09-15T11:33:32Z</time>
      </trkpt>
      <trkpt lat="47.424642518162727" lon="12.244291109964252">
        <ele>1571.4100000000001</ele>
        <time>2013-09-15T11:33:49Z</time>
      </trkpt>
      <trkpt lat="47.424570601433516" lon="12.24431742914021">
        <ele>1573.8199999999999</ele>
        <time>2013-09-15T11:34:04Z</time>
      </trkpt>
      <trkpt lat="47.424534391611814" lon="12.244315752759576">
        <ele>1575.74</ele>
        <time>2013-09-15T11:34:21Z</time>
      </trkpt>
      <trkpt lat="47.424502791836858" lon="12.244343077763915">
        <ele>1576.22</ele>
        <time>2013-09-15T11:34:41Z</time>
      </trkpt>
      <trkpt lat="47.42445551790297" lon="12.244333019480109">
        <ele>1579.0999999999999</ele>
        <time>2013-09-15T11:34:56Z</time>
      </trkpt>
      <trkpt lat="47.424411261454225" lon="12.244349448010325">
        <ele>1581.51</ele>
        <time>2013-09-15T11:35:15Z</time>
      </trkpt>
      <trkpt lat="47.424335489049554" lon="12.244396051391959">
        <ele>1582.95</ele>
        <time>2013-09-15T11:35:32Z</time>
      </trkpt>
      <trkpt lat="47.424296513199806" lon="12.244392866268754">
        <ele>1584.8699999999999</ele>
        <time>2013-09-15T11:35:50Z</time>
      </trkpt>
      <trkpt lat="47.424275055527687" lon="12.244447432458401">
        <ele>1584.8699999999999</ele>
        <time>2013-09-15T11:36:09Z</time>
      </trkpt>
      <trkpt lat="47.424271199852228" lon="12.244437290355563">
        <ele>1585.8299999999999</ele>
        <time>2013-09-15T11:36:29Z</time>
      </trkpt>
      <trkpt lat="47.424211772158742" lon="12.244415581226349">
        <ele>1588.72</ele>
        <time>2013-09-15T11:36:47Z</time>
      </trkpt>
      <trkpt lat="47.424167599529028" lon="12.244384819641709">
        <ele>1592.0799999999999</ele>
        <time>2013-09-15T11:37:03Z</time>
      </trkpt>
      <trkpt lat="47.424162151291966" lon="12.244376689195633">
        <ele>1592.5599999999999</ele>
        <time>2013-09-15T11:37:23Z</time>
      </trkpt>
      <trkpt lat="47.424118733033538" lon="12.244357326999307">
        <ele>1595.9300000000001</ele>
        <time>2013-09-15T11:37:42Z</time>
      </trkpt>
      <trkpt lat="47.424068609252572" lon="12.244335198774934">
        <ele>1597.8499999999999</ele>
        <time>2013-09-15T11:37:59Z</time>
      </trkpt>
      <trkpt lat="47.424047738313675" lon="12.244324218481779">
        <ele>1597.8499999999999</ele>
        <time>2013-09-15T11:38:25Z</time>
      </trkpt>
      <trkpt lat="47.423961153253913" lon="12.244342155754566">
        <ele>1600.25</ele>
        <time>2013-09-15T11:38:42Z</time>
      </trkpt>
      <trkpt lat="47.423907425254583" lon="12.244343077763915">
        <ele>1603.1400000000001</ele>
        <time>2013-09-15T11:38:58Z</time>
      </trkpt>
      <trkpt lat="47.42387842386961" lon="12.244344418868423">
        <ele>1605.0599999999999</ele>
        <time>2013-09-15T11:39:13Z</time>
      </trkpt>
      <trkpt lat="47.423868952319026" lon="12.244347352534533">
        <ele>1605.0599999999999</ele>
        <time>2013-09-15T11:39:28Z</time>
      </trkpt>
      <trkpt lat="47.423860989511013" lon="12.244349950924516">
        <ele>1606.02</ele>
        <time>2013-09-15T11:39:55Z</time>
      </trkpt>
      <trkpt lat="47.42381782270968" lon="12.244369732216001">
        <ele>1608.4200000000001</ele>
        <time>2013-09-15T11:40:10Z</time>
      </trkpt>
      <trkpt lat="47.423704331740737" lon="12.244391273707151">
        <ele>1610.3499999999999</ele>
        <time>2013-09-15T11:40:25Z</time>
      </trkpt>
      <trkpt lat="47.423698296770453" lon="12.244375431910157">
        <ele>1610.8299999999999</ele>
        <time>2013-09-15T11:40:40Z</time>
      </trkpt>
      <trkpt lat="47.423706343397498" lon="12.244370654225349">
        <ele>1611.3099999999999</ele>
        <time>2013-09-15T11:40:58Z</time>
      </trkpt>
      <trkpt lat="47.423714976757765" lon="12.244366127997637">
        <ele>1610.8299999999999</ele>
        <time>2013-09-15T11:41:31Z</time>
      </trkpt>
      <trkpt lat="47.423719000071287" lon="12.244354896247387">
        <ele>1611.3099999999999</ele>
        <time>2013-09-15T11:42:06Z</time>
      </trkpt>
      <trkpt lat="47.423689914867282" lon="12.244347771629691">
        <ele>1612.75</ele>
        <time>2013-09-15T11:42:24Z</time>
      </trkpt>
      <trkpt lat="47.423579106107354" lon="12.244387920945883">
        <ele>1615.6300000000001</ele>
        <time>2013-09-15T11:42:43Z</time>
      </trkpt>
      <trkpt lat="47.423547673970461" lon="12.24438046105206">
        <ele>1618.04</ele>
        <time>2013-09-15T11:43:02Z</time>
      </trkpt>
      <trkpt lat="47.423502327874303" lon="12.24437803030014">
        <ele>1620.9200000000001</ele>
        <time>2013-09-15T11:43:21Z</time>
      </trkpt>
      <trkpt lat="47.423457568511367" lon="12.244384065270424">
        <ele>1622.8399999999999</ele>
        <time>2013-09-15T11:43:41Z</time>
      </trkpt>
      <trkpt lat="47.423344999551773" lon="12.244474841281772">
        <ele>1625.73</ele>
        <time>2013-09-15T11:43:59Z</time>
      </trkpt>
      <trkpt lat="47.423309795558453" lon="12.244499148800969">
        <ele>1626.21</ele>
        <time>2013-09-15T11:44:21Z</time>
      </trkpt>
      <trkpt lat="47.423272831365466" lon="12.244482133537531">
        <ele>1627.6500000000001</ele>
        <time>2013-09-15T11:44:41Z</time>
      </trkpt>
      <trkpt lat="47.423285571858287" lon="12.244450366124511">
        <ele>1631.01</ele>
        <time>2013-09-15T11:45:00Z</time>
      </trkpt>
      <trkpt lat="47.423274843022227" lon="12.244425639510155">
        <ele>1632.9400000000001</ele>
        <time>2013-09-15T11:45:15Z</time>
      </trkpt>
      <trkpt lat="47.423250870779157" lon="12.244403008371592">
        <ele>1635.3399999999999</ele>
        <time>2013-09-15T11:45:34Z</time>
      </trkpt>
      <trkpt lat="47.423239136114717" lon="12.244399068877101">
        <ele>1635.8199999999999</ele>
        <time>2013-09-15T11:45:51Z</time>
      </trkpt>
      <trkpt lat="47.423238968476653" lon="12.244396721944213">
        <ele>1635.8199999999999</ele>
        <time>2013-09-15T11:46:08Z</time>
      </trkpt>
      <trkpt lat="47.423240477219224" lon="12.244401331990957">
        <ele>1635.8199999999999</ele>
        <time>2013-09-15T11:46:21Z</time>
      </trkpt>
      <trkpt lat="47.423223042860627" lon="12.244383562356234">
        <ele>1636.78</ele>
        <time>2013-09-15T11:46:40Z</time>
      </trkpt>
      <trkpt lat="47.42322807200253" lon="12.244369061663747">
        <ele>1637.26</ele>
        <time>2013-09-15T11:47:06Z</time>
      </trkpt>
      <trkpt lat="47.423228826373816" lon="12.244385154917836">
        <ele>1637.26</ele>
        <time>2013-09-15T11:47:25Z</time>
      </trkpt>
      <trkpt lat="47.423230921849608" lon="12.244394710287452">
        <ele>1636.3</ele>
        <time>2013-09-15T11:47:42Z</time>
      </trkpt>
      <trkpt lat="47.423211559653282" lon="12.244403092190623">
        <ele>1636.3</ele>
        <time>2013-09-15T11:48:05Z</time>
      </trkpt>
      <trkpt lat="47.423202758654952" lon="12.244398314505816">
        <ele>1636.78</ele>
        <time>2013-09-15T11:48:25Z</time>
      </trkpt>
      <trkpt lat="47.423221785575151" lon="12.24438825622201">
        <ele>1636.78</ele>
        <time>2013-09-15T11:48:45Z</time>
      </trkpt>
      <trkpt lat="47.423214241862297" lon="12.244376186281443">
        <ele>1636.3</ele>
        <time>2013-09-15T11:49:12Z</time>
      </trkpt>
      <trkpt lat="47.423222037032247" lon="12.244350789114833">
        <ele>1636.3</ele>
        <time>2013-09-15T11:49:44Z</time>
      </trkpt>
      <trkpt lat="47.42322170175612" lon="12.244356321170926">
        <ele>1636.78</ele>
        <time>2013-09-15T11:50:13Z</time>
      </trkpt>
      <trkpt lat="47.423224383965135" lon="12.244341820478439">
        <ele>1636.3</ele>
        <time>2013-09-15T11:50:36Z</time>
      </trkpt>
      <trkpt lat="47.423198651522398" lon="12.244368977844715">
        <ele>1636.78</ele>
        <time>2013-09-15T11:51:02Z</time>
      </trkpt>
      <trkpt lat="47.423205440863967" lon="12.2443662956357">
        <ele>1636.78</ele>
        <time>2013-09-15T11:51:29Z</time>
      </trkpt>
      <trkpt lat="47.423203513026237" lon="12.244347687810659">
        <ele>1636.3</ele>
        <time>2013-09-15T11:51:55Z</time>
      </trkpt>
      <trkpt lat="47.423172667622566" lon="12.244387837126851">
        <ele>1636.78</ele>
        <time>2013-09-15T11:52:30Z</time>
      </trkpt>
      <trkpt lat="47.423175601288676" lon="12.24440929479897">
        <ele>1636.78</ele>
        <time>2013-09-15T11:53:03Z</time>
      </trkpt>
      <trkpt lat="47.423181971535087" lon="12.244390686973929">
        <ele>1637.26</ele>
        <time>2013-09-15T11:53:28Z</time>
      </trkpt>
      <trkpt lat="47.423182390630245" lon="12.244388842955232">
        <ele>1636.78</ele>
        <time>2013-09-15T11:53:56Z</time>
      </trkpt>
      <trkpt lat="47.423191778361797" lon="12.244369816035032">
        <ele>1637.26</ele>
        <time>2013-09-15T11:54:25Z</time>
      </trkpt>
      <trkpt lat="47.423197561874986" lon="12.244380293413997">
        <ele>1637.26</ele>
        <time>2013-09-15T11:54:57Z</time>
      </trkpt>
      <trkpt lat="47.423199489712715" lon="12.244381802156568">
        <ele>1636.78</ele>
        <time>2013-09-15T11:55:22Z</time>
      </trkpt>
      <trkpt lat="47.423200244084001" lon="12.244384568184614">
        <ele>1637.26</ele>
        <time>2013-09-15T11:55:51Z</time>
      </trkpt>
      <trkpt lat="47.423201333731413" lon="12.244386998936534">
        <ele>1637.74</ele>
        <time>2013-09-15T11:56:11Z</time>
      </trkpt>
      <trkpt lat="47.42320217192173" lon="12.244386496022344">
        <ele>1637.74</ele>
        <time>2013-09-15T11:56:35Z</time>
      </trkpt>
      <trkpt lat="47.423196136951447" lon="12.244380293413997">
        <ele>1636.78</ele>
        <time>2013-09-15T11:56:55Z</time>
      </trkpt>
      <trkpt lat="47.423203513026237" lon="12.244402589276433">
        <ele>1637.74</ele>
        <time>2013-09-15T11:57:23Z</time>
      </trkpt>
      <trkpt lat="47.42319580167532" lon="12.244335617870092">
        <ele>1637.26</ele>
        <time>2013-09-15T11:57:47Z</time>
      </trkpt>
      <trkpt lat="47.42320166900754" lon="12.244352884590626">
        <ele>1637.74</ele>
        <time>2013-09-15T11:58:06Z</time>
      </trkpt>
      <trkpt lat="47.423220444470644" lon="12.24436042830348">
        <ele>1637.74</ele>
        <time>2013-09-15T11:58:35Z</time>
      </trkpt>
      <trkpt lat="47.423215331509709" lon="12.244366379454732">
        <ele>1638.22</ele>
        <time>2013-09-15T11:59:03Z</time>
      </trkpt>
      <trkpt lat="47.423219354823232" lon="12.244372498244047">
        <ele>1637.74</ele>
        <time>2013-09-15T11:59:33Z</time>
      </trkpt>
      <trkpt lat="47.423214493319392" lon="12.244378197938204">
        <ele>1638.22</ele>
        <time>2013-09-15T12:00:02Z</time>
      </trkpt>
      <trkpt lat="47.423207452520728" lon="12.244330756366253">
        <ele>1638.22</ele>
        <time>2013-09-15T12:00:28Z</time>
      </trkpt>
      <trkpt lat="47.423209547996521" lon="12.2443887591362">
        <ele>1637.74</ele>
        <time>2013-09-15T12:00:46Z</time>
      </trkpt>
      <trkpt lat="47.423233604058623" lon="12.244397141039371">
        <ele>1638.22</ele>
        <time>2013-09-15T12:01:21Z</time>
      </trkpt>
      <trkpt lat="47.423234358429909" lon="12.244394375011325">
        <ele>1637.74</ele>
        <time>2013-09-15T12:01:46Z</time>
      </trkpt>
      <trkpt lat="47.423232682049274" lon="12.244439553469419">
        <ele>1638.22</ele>
        <time>2013-09-15T12:02:12Z</time>
      </trkpt>
      <trkpt lat="47.42322706617415" lon="12.244429579004645">
        <ele>1638.7</ele>
        <time>2013-09-15T12:02:48Z</time>
      </trkpt>
      <trkpt lat="47.423226898536086" lon="12.244397392496467">
        <ele>1638.22</ele>
        <time>2013-09-15T12:03:04Z</time>
      </trkpt>
      <trkpt lat="47.423228742554784" lon="12.24439756013453">
        <ele>1638.22</ele>
        <time>2013-09-15T12:03:29Z</time>
      </trkpt>
      <trkpt lat="47.423243494704366" lon="12.244383981451392">
        <ele>1638.22</ele>
        <time>2013-09-15T12:03:51Z</time>
      </trkpt>
      <trkpt lat="47.423253385350108" lon="12.244377946481109">
        <ele>1637.74</ele>
        <time>2013-09-15T12:04:12Z</time>
      </trkpt>
      <trkpt lat="47.423263108357787" lon="12.244381466880441">
        <ele>1637.74</ele>
        <time>2013-09-15T12:04:32Z</time>
      </trkpt>
      <trkpt lat="47.423263108357787" lon="12.244380544871092">
        <ele>1638.22</ele>
        <time>2013-09-15T12:04:50Z</time>
      </trkpt>
      <trkpt lat="47.423172416165471" lon="12.244411893188953">
        <ele>1638.7</ele>
        <time>2013-09-15T12:05:16Z</time>
      </trkpt>
      <trkpt lat="47.423094464465976" lon="12.244514655321836">
        <ele>1639.1900000000001</ele>
        <time>2013-09-15T12:05:41Z</time>
      </trkpt>
      <trkpt lat="47.423138888552785" lon="12.244239142164588">
        <ele>1638.7</ele>
        <time>2013-09-15T12:06:04Z</time>
      </trkpt>
      <trkpt lat="47.423158502206206" lon="12.244192706421018">
        <ele>1638.7</ele>
        <time>2013-09-15T12:06:22Z</time>
      </trkpt>
      <trkpt lat="47.42325690574944" lon="12.244055662304163">
        <ele>1639.1900000000001</ele>
        <time>2013-09-15T12:06:42Z</time>
      </trkpt>
      <trkpt lat="47.423213655129075" lon="12.243933202698827">
        <ele>1639.1900000000001</ele>
        <time>2013-09-15T12:06:58Z</time>
      </trkpt>
      <trkpt lat="47.423196053132415" lon="12.243774365633726">
        <ele>1639.6700000000001</ele>
        <time>2013-09-15T12:07:15Z</time>
      </trkpt>
      <trkpt lat="47.423129417002201" lon="12.243632879108191">
        <ele>1641.1099999999999</ele>
        <time>2013-09-15T12:07:33Z</time>
      </trkpt>
      <trkpt lat="47.423143917694688" lon="12.243612846359611">
        <ele>1643.51</ele>
        <time>2013-09-15T12:07:52Z</time>
      </trkpt>
      <trkpt lat="47.423090692609549" lon="12.243535313755274">
        <ele>1646.8800000000001</ele>
        <time>2013-09-15T12:08:09Z</time>
      </trkpt>
      <trkpt lat="47.423068564385176" lon="12.243480496108532">
        <ele>1649.76</ele>
        <time>2013-09-15T12:08:28Z</time>
      </trkpt>
      <trkpt lat="47.423059428110719" lon="12.243440598249435">
        <ele>1651.6800000000001</ele>
        <time>2013-09-15T12:08:44Z</time>
      </trkpt>
      <trkpt lat="47.423034030944109" lon="12.243440682068467">
        <ele>1654.0899999999999</ele>
        <time>2013-09-15T12:09:06Z</time>
      </trkpt>
      <trkpt lat="47.422855999320745" lon="12.243377817794681">
        <ele>1655.53</ele>
        <time>2013-09-15T12:09:26Z</time>
      </trkpt>
      <trkpt lat="47.422776455059648" lon="12.243457278236747">
        <ele>1658.4100000000001</ele>
        <time>2013-09-15T12:09:46Z</time>
      </trkpt>
      <trkpt lat="47.422711914405227" lon="12.243584766983986">
        <ele>1660.8099999999999</ele>
        <time>2013-09-15T12:10:02Z</time>
      </trkpt>
      <trkpt lat="47.42270671762526" lon="12.243579654023051">
        <ele>1664.1800000000001</ele>
        <time>2013-09-15T12:10:23Z</time>
      </trkpt>
      <trkpt lat="47.422621138393879" lon="12.243628185242414">
        <ele>1665.6199999999999</ele>
        <time>2013-09-15T12:10:41Z</time>
      </trkpt>
      <trkpt lat="47.422598842531443" lon="12.243661796674132">
        <ele>1668.51</ele>
        <time>2013-09-15T12:11:00Z</time>
      </trkpt>
      <trkpt lat="47.42254544980824" lon="12.243705214932561">
        <ele>1670.9100000000001</ele>
        <time>2013-09-15T12:11:19Z</time>
      </trkpt>
      <trkpt lat="47.422482669353485" lon="12.24370856769383">
        <ele>1671.8699999999999</ele>
        <time>2013-09-15T12:11:37Z</time>
      </trkpt>
      <trkpt lat="47.422460373491049" lon="12.243725415319204">
        <ele>1674.27</ele>
        <time>2013-09-15T12:11:55Z</time>
      </trkpt>
      <trkpt lat="47.422424415126443" lon="12.243741760030389">
        <ele>1677.6400000000001</ele>
        <time>2013-09-15T12:12:13Z</time>
      </trkpt>
      <trkpt lat="47.422361802309752" lon="12.243747878819704">
        <ele>1679.5599999999999</ele>
        <time>2013-09-15T12:12:29Z</time>
      </trkpt>
      <trkpt lat="47.422248898074031" lon="12.243747459724545">
        <ele>1681.96</ele>
        <time>2013-09-15T12:12:47Z</time>
      </trkpt>
      <trkpt lat="47.42224202491343" lon="12.243757350370288">
        <ele>1683.4100000000001</ele>
        <time>2013-09-15T12:13:05Z</time>
      </trkpt>
      <trkpt lat="47.422186704352498" lon="12.243811497464776">
        <ele>1685.8099999999999</ele>
        <time>2013-09-15T12:13:20Z</time>
      </trkpt>
      <trkpt lat="47.422128533944488" lon="12.243919037282467">
        <ele>1688.6900000000001</ele>
        <time>2013-09-15T12:13:37Z</time>
      </trkpt>
      <trkpt lat="47.422084864228964" lon="12.243962706997991">
        <ele>1691.0999999999999</ele>
        <time>2013-09-15T12:13:56Z</time>
      </trkpt>
      <trkpt lat="47.422068351879716" lon="12.244143839925528">
        <ele>1693.02</ele>
        <time>2013-09-15T12:14:12Z</time>
      </trkpt>
      <trkpt lat="47.422067681327462" lon="12.24418893456459">
        <ele>1693.02</ele>
        <time>2013-09-15T12:14:35Z</time>
      </trkpt>
      <trkpt lat="47.422031303867698" lon="12.244210727512836">
        <ele>1693.98</ele>
        <time>2013-09-15T12:14:52Z</time>
      </trkpt>
      <trkpt lat="47.422034321352839" lon="12.244255822151899">
        <ele>1695.4200000000001</ele>
        <time>2013-09-15T12:15:18Z</time>
      </trkpt>
      <trkpt lat="47.422042703256011" lon="12.244334779679775">
        <ele>1697.3399999999999</ele>
        <time>2013-09-15T12:15:40Z</time>
      </trkpt>
      <trkpt lat="47.422105902805924" lon="12.244497891515493">
        <ele>1699.27</ele>
        <time>2013-09-15T12:15:59Z</time>
      </trkpt>
      <trkpt lat="47.422106992453337" lon="12.244575591757894">
        <ele>1701.6700000000001</ele>
        <time>2013-09-15T12:16:19Z</time>
      </trkpt>
      <trkpt lat="47.422179328277707" lon="12.244641724973917">
        <ele>1703.5899999999999</ele>
        <time>2013-09-15T12:16:39Z</time>
      </trkpt>
      <trkpt lat="47.422148399055004" lon="12.244707606732845">
        <ele>1706.48</ele>
        <time>2013-09-15T12:16:54Z</time>
      </trkpt>
      <trkpt lat="47.422139346599579" lon="12.244763514026999">
        <ele>1706.48</ele>
        <time>2013-09-15T12:17:10Z</time>
      </trkpt>
      <trkpt lat="47.422151332721114" lon="12.244777763262391">
        <ele>1706.96</ele>
        <time>2013-09-15T12:17:35Z</time>
      </trkpt>
      <trkpt lat="47.42216725833714" lon="12.244784887880087">
        <ele>1707.4400000000001</ele>
        <time>2013-09-15T12:17:59Z</time>
      </trkpt>
      <trkpt lat="47.422138173133135" lon="12.24474499002099">
        <ele>1710.8</ele>
        <time>2013-09-15T12:18:16Z</time>
      </trkpt>
      <trkpt lat="47.42212082259357" lon="12.244786648079753">
        <ele>1711.28</ele>
        <time>2013-09-15T12:18:32Z</time>
      </trkpt>
      <trkpt lat="47.422110429033637" lon="12.244763178750873">
        <ele>1714.1700000000001</ele>
        <time>2013-09-15T12:18:52Z</time>
      </trkpt>
      <trkpt lat="47.422057120129466" lon="12.244708528742194">
        <ele>1715.6099999999999</ele>
        <time>2013-09-15T12:19:11Z</time>
      </trkpt>
      <trkpt lat="47.422052593901753" lon="12.24471271969378">
        <ele>1716.5699999999999</ele>
        <time>2013-09-15T12:19:31Z</time>
      </trkpt>
      <trkpt lat="47.422008672729135" lon="12.244712803512812">
        <ele>1718.97</ele>
        <time>2013-09-15T12:19:46Z</time>
      </trkpt>
      <trkpt lat="47.421970954164863" lon="12.244695788249373">
        <ele>1720.9000000000001</ele>
        <time>2013-09-15T12:20:03Z</time>
      </trkpt>
      <trkpt lat="47.421924015507102" lon="12.244803411886096">
        <ele>1722.8199999999999</ele>
        <time>2013-09-15T12:20:19Z</time>
      </trkpt>
      <trkpt lat="47.421908928081393" lon="12.244764352217317">
        <ele>1725.22</ele>
        <time>2013-09-15T12:20:37Z</time>
      </trkpt>
      <trkpt lat="47.42189702577889" lon="12.244760328903794">
        <ele>1726.1800000000001</ele>
        <time>2013-09-15T12:20:54Z</time>
      </trkpt>
      <trkpt lat="47.42185796611011" lon="12.244756305590272">
        <ele>1728.1099999999999</ele>
        <time>2013-09-15T12:21:11Z</time>
      </trkpt>
      <trkpt lat="47.421824689954519" lon="12.244828557595611">
        <ele>1730.99</ele>
        <time>2013-09-15T12:21:27Z</time>
      </trkpt>
      <trkpt lat="47.421784708276391" lon="12.244873903691769">
        <ele>1732.4300000000001</ele>
        <time>2013-09-15T12:21:43Z</time>
      </trkpt>
      <trkpt lat="47.421782109886408" lon="12.244840627536178">
        <ele>1733.8800000000001</ele>
        <time>2013-09-15T12:22:00Z</time>
      </trkpt>
      <trkpt lat="47.421762412413955" lon="12.24488278850913">
        <ele>1735.8</ele>
        <time>2013-09-15T12:22:19Z</time>
      </trkpt>
      <trkpt lat="47.421796107664704" lon="12.244824534282088">
        <ele>1736.28</ele>
        <time>2013-09-15T12:22:40Z</time>
      </trkpt>
      <trkpt lat="47.421819576993585" lon="12.244811961427331">
        <ele>1736.28</ele>
        <time>2013-09-15T12:23:05Z</time>
      </trkpt>
      <trkpt lat="47.421814044937491" lon="12.244803244248033">
        <ele>1737.24</ele>
        <time>2013-09-15T12:23:30Z</time>
      </trkpt>
      <trkpt lat="47.421730980277061" lon="12.244791174307466">
        <ele>1739.1600000000001</ele>
        <time>2013-09-15T12:23:56Z</time>
      </trkpt>
      <trkpt lat="47.421655626967549" lon="12.244743229821324">
        <ele>1741.5699999999999</ele>
        <time>2013-09-15T12:24:14Z</time>
      </trkpt>
      <trkpt lat="47.421597624197602" lon="12.244698889553547">
        <ele>1743.49</ele>
        <time>2013-09-15T12:24:33Z</time>
      </trkpt>
      <trkpt lat="47.421500058844686" lon="12.244544159621">
        <ele>1744.9300000000001</ele>
        <time>2013-09-15T12:24:52Z</time>
      </trkpt>
      <trkpt lat="47.421449432149529" lon="12.244588416069746">
        <ele>1748.29</ele>
        <time>2013-09-15T12:25:12Z</time>
      </trkpt>
      <trkpt lat="47.42141280323267" lon="12.244630996137857">
        <ele>1749.74</ele>
        <time>2013-09-15T12:25:31Z</time>
      </trkpt>
      <trkpt lat="47.421336863189936" lon="12.244634432718158">
        <ele>1751.1800000000001</ele>
        <time>2013-09-15T12:25:49Z</time>
      </trkpt>
      <trkpt lat="47.421312555670738" lon="12.24472981877625">
        <ele>1753.0999999999999</ele>
        <time>2013-09-15T12:26:05Z</time>
      </trkpt>
      <trkpt lat="47.421309286728501" lon="12.244819924235344">
        <ele>1754.54</ele>
        <time>2013-09-15T12:26:20Z</time>
      </trkpt>
      <trkpt lat="47.421321105211973" lon="12.244885805994272">
        <ele>1756.47</ele>
        <time>2013-09-15T12:26:36Z</time>
      </trkpt>
      <trkpt lat="47.421328565105796" lon="12.244963338598609">
        <ele>1758.3900000000001</ele>
        <time>2013-09-15T12:26:49Z</time>
      </trkpt>
      <trkpt lat="47.421331750229001" lon="12.245079008862376">
        <ele>1760.3099999999999</ele>
        <time>2013-09-15T12:27:07Z</time>
      </trkpt>
      <trkpt lat="47.421340383589268" lon="12.24518227390945">
        <ele>1761.27</ele>
        <time>2013-09-15T12:27:18Z</time>
      </trkpt>
      <trkpt lat="47.421360248699784" lon="12.245242623612285">
        <ele>1761.75</ele>
        <time>2013-09-15T12:27:22Z</time>
      </trkpt>
      <trkpt lat="47.421363852918148" lon="12.245356114581227">
        <ele>1761.27</ele>
        <time>2013-09-15T12:27:39Z</time>
      </trkpt>
      <trkpt lat="47.421402493491769" lon="12.245293250307441">
        <ele>1761.27</ele>
        <time>2013-09-15T12:27:55Z</time>
      </trkpt>
      <trkpt lat="47.421379024162889" lon="12.245327280834317">
        <ele>1761.75</ele>
        <time>2013-09-15T12:28:17Z</time>
      </trkpt>
      <trkpt lat="47.421386232599616" lon="12.245331220328808">
        <ele>1762.23</ele>
        <time>2013-09-15T12:28:46Z</time>
      </trkpt>
      <trkpt lat="47.421363517642021" lon="12.24533817730844">
        <ele>1761.75</ele>
        <time>2013-09-15T12:29:02Z</time>
      </trkpt>
      <trkpt lat="47.421311885118484" lon="12.245341027155519">
        <ele>1762.23</ele>
        <time>2013-09-15T12:29:17Z</time>
      </trkpt>
      <trkpt lat="47.42126720957458" lon="12.245330382138491">
        <ele>1762.71</ele>
        <time>2013-09-15T12:29:22Z</time>
      </trkpt>
      <trkpt lat="47.421231083571911" lon="12.24530984647572">
        <ele>1761.75</ele>
        <time>2013-09-15T12:29:39Z</time>
      </trkpt>
      <trkpt lat="47.421122705563903" lon="12.245249077677727">
        <ele>1762.71</ele>
        <time>2013-09-15T12:29:54Z</time>
      </trkpt>
      <trkpt lat="47.421033103018999" lon="12.245224099606276">
        <ele>1763.6800000000001</ele>
        <time>2013-09-15T12:30:08Z</time>
      </trkpt>
      <trkpt lat="47.420937549322844" lon="12.245204234495759">
        <ele>1765.5999999999999</ele>
        <time>2013-09-15T12:30:21Z</time>
      </trkpt>
      <trkpt lat="47.420848114416003" lon="12.245192751288414">
        <ele>1768</ele>
        <time>2013-09-15T12:30:35Z</time>
      </trkpt>
      <trkpt lat="47.42080545052886" lon="12.245191494002938">
        <ele>1768.48</ele>
        <time>2013-09-15T12:30:52Z</time>
      </trkpt>
      <trkpt lat="47.420743172988296" lon="12.24515687674284">
        <ele>1770.4100000000001</ele>
        <time>2013-09-15T12:31:10Z</time>
      </trkpt>
      <trkpt lat="47.4206652212888" lon="12.245098622515798">
        <ele>1772.3299999999999</ele>
        <time>2013-09-15T12:31:24Z</time>
      </trkpt>
      <trkpt lat="47.420647032558918" lon="12.24508311599493">
        <ele>1772.8099999999999</ele>
        <time>2013-09-15T12:31:42Z</time>
      </trkpt>
      <trkpt lat="47.420635549351573" lon="12.245069202035666">
        <ele>1774.25</ele>
        <time>2013-09-15T12:31:54Z</time>
      </trkpt>
      <trkpt lat="47.420572098344564" lon="12.245003739371896">
        <ele>1775.6900000000001</ele>
        <time>2013-09-15T12:32:07Z</time>
      </trkpt>
      <trkpt lat="47.420509820804" lon="12.244973480701447">
        <ele>1777.6099999999999</ele>
        <time>2013-09-15T12:32:23Z</time>
      </trkpt>
      <trkpt lat="47.420428516343236" lon="12.244936097413301">
        <ele>1779.0599999999999</ele>
        <time>2013-09-15T12:32:37Z</time>
      </trkpt>
      <trkpt lat="47.420368753373623" lon="12.244926542043686">
        <ele>1780.5</ele>
        <time>2013-09-15T12:32:53Z</time>
      </trkpt>
      <trkpt lat="47.420288035646081" lon="12.244892930611968">
        <ele>1782.9000000000001</ele>
        <time>2013-09-15T12:33:07Z</time>
      </trkpt>
      <trkpt lat="47.420243863016367" lon="12.244857307523489">
        <ele>1784.8199999999999</ele>
        <time>2013-09-15T12:33:26Z</time>
      </trkpt>
      <trkpt lat="47.420186530798674" lon="12.244835011661053">
        <ele>1785.79</ele>
        <time>2013-09-15T12:33:43Z</time>
      </trkpt>
      <trkpt lat="47.420118721202016" lon="12.244799304753542">
        <ele>1787.71</ele>
        <time>2013-09-15T12:33:55Z</time>
      </trkpt>
      <trkpt lat="47.420084103941917" lon="12.244783798232675">
        <ele>1789.6300000000001</ele>
        <time>2013-09-15T12:34:09Z</time>
      </trkpt>
      <trkpt lat="47.420064406469464" lon="12.244785558432341">
        <ele>1791.0699999999999</ele>
        <time>2013-09-15T12:34:25Z</time>
      </trkpt>
      <trkpt lat="47.420032219961286" lon="12.244790839031339">
        <ele>1791.55</ele>
        <time>2013-09-15T12:34:40Z</time>
      </trkpt>
      <trkpt lat="47.419987879693508" lon="12.244707774370909">
        <ele>1793.48</ele>
        <time>2013-09-15T12:34:53Z</time>
      </trkpt>
      <trkpt lat="47.419917723163962" lon="12.244654297828674">
        <ele>1795.8800000000001</ele>
        <time>2013-09-15T12:35:08Z</time>
      </trkpt>
      <trkpt lat="47.419869359582663" lon="12.244621021673083">
        <ele>1798.76</ele>
        <time>2013-09-15T12:35:22Z</time>
      </trkpt>
      <trkpt lat="47.419842453673482" lon="12.244603335857391">
        <ele>1800.21</ele>
        <time>2013-09-15T12:35:38Z</time>
      </trkpt>
      <trkpt lat="47.419799705967307" lon="12.244572406634688">
        <ele>1801.6500000000001</ele>
        <time>2013-09-15T12:35:55Z</time>
      </trkpt>
      <trkpt lat="47.41978470236063" lon="12.244546506553888">
        <ele>1801.6500000000001</ele>
        <time>2013-09-15T12:36:10Z</time>
      </trkpt>
      <trkpt lat="47.419789396226406" lon="12.244490096345544">
        <ele>1801.1700000000001</ele>
        <time>2013-09-15T12:36:23Z</time>
      </trkpt>
      <trkpt lat="47.419817307963967" lon="12.244464280083776">
        <ele>1802.1300000000001</ele>
        <time>2013-09-15T12:36:34Z</time>
      </trkpt>
      <trkpt lat="47.419895175844431" lon="12.244428740814328">
        <ele>1802.1300000000001</ele>
        <time>2013-09-15T12:36:48Z</time>
      </trkpt>
      <trkpt lat="47.419933481141925" lon="12.244427567347884">
        <ele>1802.6099999999999</ele>
        <time>2013-09-15T12:37:09Z</time>
      </trkpt>
      <trkpt lat="47.419930966570973" lon="12.244420778006315">
        <ele>1802.6099999999999</ele>
        <time>2013-09-15T12:37:26Z</time>
      </trkpt>
      <trkpt lat="47.41983256302774" lon="12.244377108290792">
        <ele>1802.1300000000001</ele>
        <time>2013-09-15T12:37:41Z</time>
      </trkpt>
      <trkpt lat="47.419818732887506" lon="12.244373671710491">
        <ele>1802.1300000000001</ele>
        <time>2013-09-15T12:37:59Z</time>
      </trkpt>
      <trkpt lat="47.419805154204369" lon="12.244370989501476">
        <ele>1802.1300000000001</ele>
        <time>2013-09-15T12:38:35Z</time>
      </trkpt>
      <trkpt lat="47.419799538329244" lon="12.244371743872762">
        <ele>1802.6099999999999</ele>
        <time>2013-09-15T12:39:08Z</time>
      </trkpt>
      <trkpt lat="47.419747905805707" lon="12.244418179616332">
        <ele>1802.1300000000001</ele>
        <time>2013-09-15T12:39:27Z</time>
      </trkpt>
      <trkpt lat="47.41963223554194" lon="12.244478948414326">
        <ele>1802.6099999999999</ele>
        <time>2013-09-15T12:39:41Z</time>
      </trkpt>
      <trkpt lat="47.419533580541611" lon="12.244481462985277">
        <ele>1803.0899999999999</ele>
        <time>2013-09-15T12:39:55Z</time>
      </trkpt>
      <trkpt lat="47.419416233897209" lon="12.244485067203641">
        <ele>1803.0899999999999</ele>
        <time>2013-09-15T12:40:11Z</time>
      </trkpt>
      <trkpt lat="47.419349513947964" lon="12.244444163516164">
        <ele>1803.0899999999999</ele>
        <time>2013-09-15T12:40:26Z</time>
      </trkpt>
      <trkpt lat="47.419348089024425" lon="12.244408205151558">
        <ele>1803.5699999999999</ele>
        <time>2013-09-15T12:40:43Z</time>
      </trkpt>
      <trkpt lat="47.419342221692204" lon="12.244324302300811">
        <ele>1803.0899999999999</ele>
        <time>2013-09-15T12:41:04Z</time>
      </trkpt>
      <trkpt lat="47.419398631900549" lon="12.244285158813">
        <ele>1803.0899999999999</ele>
        <time>2013-09-15T12:41:15Z</time>
      </trkpt>
      <trkpt lat="47.419433081522584" lon="12.244267472997308">
        <ele>1803.0899999999999</ele>
        <time>2013-09-15T12:41:42Z</time>
      </trkpt>
      <trkpt lat="47.419433332979679" lon="12.244250541552901">
        <ele>1803.0899999999999</ele>
        <time>2013-09-15T12:42:15Z</time>
      </trkpt>
      <trkpt lat="47.419482534751296" lon="12.244252050295472">
        <ele>1803.0899999999999</ele>
        <time>2013-09-15T12:42:32Z</time>
      </trkpt>
      <trkpt lat="47.419516481459141" lon="12.244259510189295">
        <ele>1803.5699999999999</ele>
        <time>2013-09-15T12:42:52Z</time>
      </trkpt>
      <trkpt lat="47.419465268030763" lon="12.24423629231751">
        <ele>1803.0899999999999</ele>
        <time>2013-09-15T12:43:06Z</time>
      </trkpt>
      <trkpt lat="47.419456383213401" lon="12.24425045773387">
        <ele>1803.5699999999999</ele>
        <time>2013-09-15T12:43:39Z</time>
      </trkpt>
      <trkpt lat="47.419429644942284" lon="12.244278872385621">
        <ele>1808.8599999999999</ele>
        <time>2013-09-15T12:43:58Z</time>
      </trkpt>
      <trkpt lat="47.419425873085856" lon="12.244285913184285">
        <ele>1802.1300000000001</ele>
        <time>2013-09-15T12:43:59Z</time>
      </trkpt>
      <trkpt lat="47.419421346858144" lon="12.244292786344886">
        <ele>1805.49</ele>
        <time>2013-09-15T12:44:00Z</time>
      </trkpt>
      <trkpt lat="47.419407181441784" lon="12.244297144934535">
        <ele>1803.5699999999999</ele>
        <time>2013-09-15T12:44:03Z</time>
      </trkpt>
      <trkpt lat="47.419361835345626" lon="12.244255235418677">
        <ele>1803.5699999999999</ele>
        <time>2013-09-15T12:44:22Z</time>
      </trkpt>
      <trkpt lat="47.419371977448463" lon="12.244289182126522">
        <ele>1803.0899999999999</ele>
        <time>2013-09-15T12:44:43Z</time>
      </trkpt>
      <trkpt lat="47.419372983276844" lon="12.244248446077108">
        <ele>1803.5699999999999</ele>
        <time>2013-09-15T12:44:53Z</time>
      </trkpt>
      <trkpt lat="47.419338701292872" lon="12.244309801608324">
        <ele>1803.5699999999999</ele>
        <time>2013-09-15T12:45:32Z</time>
      </trkpt>
      <trkpt lat="47.419167961925268" lon="12.244663601741195">
        <ele>1803.0899999999999</ele>
        <time>2013-09-15T12:45:55Z</time>
      </trkpt>
      <trkpt lat="47.419396284967661" lon="12.244493281468749">
        <ele>1805.97</ele>
        <time>2013-09-15T13:10:54Z</time>
      </trkpt>
      <trkpt lat="47.419285057112575" lon="12.244482971727848">
        <ele>1802.6099999999999</ele>
        <time>2013-09-15T13:11:11Z</time>
      </trkpt>
      <trkpt lat="47.419279608875513" lon="12.244444917887449">
        <ele>1802.6099999999999</ele>
        <time>2013-09-15T13:11:32Z</time>
      </trkpt>
    </trkseg>
  </trk>

</gpx>